<?xml version="1.0" encoding="UTF-8" standalone="no" ?>
<gpx xmlns="http://www.topografix.com/GPX/1/1" xmlns:xsi="http://www.w3.org/2001/XMLSchema-instance" xsi:schemaLocation="http://www.topografix.com/GPX/1/1 http://www.topografix.com/GPX/1/1/gpx.xsd" version="1.1" creator="VisuGPX - https://www.visugpx.com">
  <metadata>
    <name>Saint-Pierre (Cantal) Site des Templiers</name>
    <desc><![CDATA[Découvrez une petite chapelle dans une cathédrale de verdure]]></desc>
  </metadata>
  <trk>
    <name><![CDATA[Saint-Pierre (Cantal) Site des Templiers_1]]></name>
    <trkseg>
      <trkpt lat="45.38698" lon="2.38992">
        <ele>653</ele>
        <time>2015-10-25T09:30:26Z</time>
      </trkpt>
      <trkpt lat="45.38698" lon="2.38992">
        <ele>653</ele>
        <time>2015-10-25T09:30:27Z</time>
      </trkpt>
      <trkpt lat="45.38698" lon="2.38992">
        <ele>653</ele>
        <time>2015-10-25T09:30:29Z</time>
      </trkpt>
      <trkpt lat="45.38696" lon="2.3899">
        <ele>651</ele>
        <time>2015-10-25T09:30:38Z</time>
      </trkpt>
      <trkpt lat="45.38696" lon="2.38989">
        <ele>650</ele>
        <time>2015-10-25T09:30:39Z</time>
      </trkpt>
      <trkpt lat="45.387" lon="2.38987">
        <ele>651</ele>
        <time>2015-10-25T09:30:48Z</time>
      </trkpt>
      <trkpt lat="45.38707" lon="2.3898">
        <ele>652</ele>
        <time>2015-10-25T09:30:53Z</time>
      </trkpt>
      <trkpt lat="45.38714" lon="2.38971">
        <ele>652</ele>
        <time>2015-10-25T09:30:57Z</time>
      </trkpt>
      <trkpt lat="45.38721" lon="2.38967">
        <ele>653</ele>
        <time>2015-10-25T09:31:00Z</time>
      </trkpt>
      <trkpt lat="45.38728" lon="2.38966">
        <ele>651</ele>
        <time>2015-10-25T09:31:04Z</time>
      </trkpt>
      <trkpt lat="45.38737" lon="2.3897">
        <ele>648</ele>
        <time>2015-10-25T09:31:09Z</time>
      </trkpt>
      <trkpt lat="45.38743" lon="2.38975">
        <ele>649</ele>
        <time>2015-10-25T09:31:13Z</time>
      </trkpt>
      <trkpt lat="45.38751" lon="2.38977">
        <ele>647</ele>
        <time>2015-10-25T09:31:16Z</time>
      </trkpt>
      <trkpt lat="45.38758" lon="2.38976">
        <ele>648</ele>
        <time>2015-10-25T09:31:19Z</time>
      </trkpt>
      <trkpt lat="45.38765" lon="2.38971">
        <ele>648</ele>
        <time>2015-10-25T09:31:22Z</time>
      </trkpt>
      <trkpt lat="45.38774" lon="2.38967">
        <ele>649</ele>
        <time>2015-10-25T09:31:26Z</time>
      </trkpt>
      <trkpt lat="45.38783" lon="2.38963">
        <ele>649</ele>
        <time>2015-10-25T09:31:30Z</time>
      </trkpt>
      <trkpt lat="45.3879" lon="2.38959">
        <ele>649</ele>
        <time>2015-10-25T09:31:33Z</time>
      </trkpt>
      <trkpt lat="45.38797" lon="2.38955">
        <ele>652</ele>
        <time>2015-10-25T09:31:37Z</time>
      </trkpt>
      <trkpt lat="45.38803" lon="2.38949">
        <ele>654</ele>
        <time>2015-10-25T09:31:40Z</time>
      </trkpt>
      <trkpt lat="45.38811" lon="2.38941">
        <ele>653</ele>
        <time>2015-10-25T09:31:43Z</time>
      </trkpt>
      <trkpt lat="45.3882" lon="2.38934">
        <ele>650</ele>
        <time>2015-10-25T09:31:46Z</time>
      </trkpt>
      <trkpt lat="45.38829" lon="2.38927">
        <ele>649</ele>
        <time>2015-10-25T09:31:49Z</time>
      </trkpt>
      <trkpt lat="45.38836" lon="2.3892">
        <ele>650</ele>
        <time>2015-10-25T09:31:51Z</time>
      </trkpt>
      <trkpt lat="45.38843" lon="2.38912">
        <ele>650</ele>
        <time>2015-10-25T09:31:53Z</time>
      </trkpt>
      <trkpt lat="45.38849" lon="2.38904">
        <ele>652</ele>
        <time>2015-10-25T09:31:55Z</time>
      </trkpt>
      <trkpt lat="45.38855" lon="2.38897">
        <ele>653</ele>
        <time>2015-10-25T09:31:57Z</time>
      </trkpt>
      <trkpt lat="45.38862" lon="2.38892">
        <ele>650</ele>
        <time>2015-10-25T09:31:59Z</time>
      </trkpt>
      <trkpt lat="45.38869" lon="2.38887">
        <ele>649</ele>
        <time>2015-10-25T09:32:01Z</time>
      </trkpt>
      <trkpt lat="45.38876" lon="2.38882">
        <ele>651</ele>
        <time>2015-10-25T09:32:03Z</time>
      </trkpt>
      <trkpt lat="45.38882" lon="2.38876">
        <ele>651</ele>
        <time>2015-10-25T09:32:05Z</time>
      </trkpt>
      <trkpt lat="45.38889" lon="2.38871">
        <ele>650</ele>
        <time>2015-10-25T09:32:07Z</time>
      </trkpt>
      <trkpt lat="45.38896" lon="2.38868">
        <ele>650</ele>
        <time>2015-10-25T09:32:09Z</time>
      </trkpt>
      <trkpt lat="45.38903" lon="2.38865">
        <ele>651</ele>
        <time>2015-10-25T09:32:11Z</time>
      </trkpt>
      <trkpt lat="45.38912" lon="2.38859">
        <ele>651</ele>
        <time>2015-10-25T09:32:14Z</time>
      </trkpt>
      <trkpt lat="45.38922" lon="2.38854">
        <ele>652</ele>
        <time>2015-10-25T09:32:17Z</time>
      </trkpt>
      <trkpt lat="45.38932" lon="2.3885">
        <ele>653</ele>
        <time>2015-10-25T09:32:20Z</time>
      </trkpt>
      <trkpt lat="45.3894" lon="2.38848">
        <ele>653</ele>
        <time>2015-10-25T09:32:22Z</time>
      </trkpt>
      <trkpt lat="45.38947" lon="2.38847">
        <ele>654</ele>
        <time>2015-10-25T09:32:24Z</time>
      </trkpt>
      <trkpt lat="45.38955" lon="2.38847">
        <ele>651</ele>
        <time>2015-10-25T09:32:26Z</time>
      </trkpt>
      <trkpt lat="45.38963" lon="2.38848">
        <ele>649</ele>
        <time>2015-10-25T09:32:28Z</time>
      </trkpt>
      <trkpt lat="45.38971" lon="2.38848">
        <ele>651</ele>
        <time>2015-10-25T09:32:30Z</time>
      </trkpt>
      <trkpt lat="45.38978" lon="2.38847">
        <ele>650</ele>
        <time>2015-10-25T09:32:32Z</time>
      </trkpt>
      <trkpt lat="45.38986" lon="2.38845">
        <ele>648</ele>
        <time>2015-10-25T09:32:34Z</time>
      </trkpt>
      <trkpt lat="45.38995" lon="2.38846">
        <ele>648</ele>
        <time>2015-10-25T09:32:36Z</time>
      </trkpt>
      <trkpt lat="45.39002" lon="2.38844">
        <ele>651</ele>
        <time>2015-10-25T09:32:38Z</time>
      </trkpt>
      <trkpt lat="45.39011" lon="2.3884">
        <ele>650</ele>
        <time>2015-10-25T09:32:40Z</time>
      </trkpt>
      <trkpt lat="45.39018" lon="2.38837">
        <ele>650</ele>
        <time>2015-10-25T09:32:42Z</time>
      </trkpt>
      <trkpt lat="45.39028" lon="2.38834">
        <ele>649</ele>
        <time>2015-10-25T09:32:45Z</time>
      </trkpt>
      <trkpt lat="45.39037" lon="2.3883">
        <ele>651</ele>
        <time>2015-10-25T09:32:48Z</time>
      </trkpt>
      <trkpt lat="45.39047" lon="2.38825">
        <ele>652</ele>
        <time>2015-10-25T09:32:51Z</time>
      </trkpt>
      <trkpt lat="45.39057" lon="2.38822">
        <ele>652</ele>
        <time>2015-10-25T09:32:54Z</time>
      </trkpt>
      <trkpt lat="45.39067" lon="2.38822">
        <ele>652</ele>
        <time>2015-10-25T09:32:57Z</time>
      </trkpt>
      <trkpt lat="45.39077" lon="2.38822">
        <ele>652</ele>
        <time>2015-10-25T09:33:00Z</time>
      </trkpt>
      <trkpt lat="45.39086" lon="2.3883">
        <ele>649</ele>
        <time>2015-10-25T09:33:03Z</time>
      </trkpt>
      <trkpt lat="45.39095" lon="2.38853">
        <ele>646</ele>
        <time>2015-10-25T09:33:05Z</time>
      </trkpt>
      <trkpt lat="45.391" lon="2.38872">
        <ele>645</ele>
        <time>2015-10-25T09:33:07Z</time>
      </trkpt>
      <trkpt lat="45.39103" lon="2.38882">
        <ele>644</ele>
        <time>2015-10-25T09:33:08Z</time>
      </trkpt>
      <trkpt lat="45.39106" lon="2.38902">
        <ele>642</ele>
        <time>2015-10-25T09:33:10Z</time>
      </trkpt>
      <trkpt lat="45.39112" lon="2.38916">
        <ele>650</ele>
        <time>2015-10-25T09:33:12Z</time>
      </trkpt>
      <trkpt lat="45.39114" lon="2.38925">
        <ele>651</ele>
        <time>2015-10-25T09:33:13Z</time>
      </trkpt>
      <trkpt lat="45.3912" lon="2.38939">
        <ele>650</ele>
        <time>2015-10-25T09:33:15Z</time>
      </trkpt>
      <trkpt lat="45.39124" lon="2.38955">
        <ele>647</ele>
        <time>2015-10-25T09:33:17Z</time>
      </trkpt>
      <trkpt lat="45.3913" lon="2.38971">
        <ele>647</ele>
        <time>2015-10-25T09:33:19Z</time>
      </trkpt>
      <trkpt lat="45.39134" lon="2.3899">
        <ele>644</ele>
        <time>2015-10-25T09:33:21Z</time>
      </trkpt>
      <trkpt lat="45.3914" lon="2.39008">
        <ele>641</ele>
        <time>2015-10-25T09:33:23Z</time>
      </trkpt>
      <trkpt lat="45.39142" lon="2.39023">
        <ele>638</ele>
        <time>2015-10-25T09:33:25Z</time>
      </trkpt>
      <trkpt lat="45.39145" lon="2.39036">
        <ele>638</ele>
        <time>2015-10-25T09:33:27Z</time>
      </trkpt>
      <trkpt lat="45.39151" lon="2.39049">
        <ele>641</ele>
        <time>2015-10-25T09:33:29Z</time>
      </trkpt>
      <trkpt lat="45.39157" lon="2.39057">
        <ele>641</ele>
        <time>2015-10-25T09:33:31Z</time>
      </trkpt>
      <trkpt lat="45.39165" lon="2.39065">
        <ele>640</ele>
        <time>2015-10-25T09:33:33Z</time>
      </trkpt>
      <trkpt lat="45.3917" lon="2.39074">
        <ele>641</ele>
        <time>2015-10-25T09:33:35Z</time>
      </trkpt>
      <trkpt lat="45.39179" lon="2.39084">
        <ele>640</ele>
        <time>2015-10-25T09:33:37Z</time>
      </trkpt>
      <trkpt lat="45.39189" lon="2.39093">
        <ele>639</ele>
        <time>2015-10-25T09:33:39Z</time>
      </trkpt>
      <trkpt lat="45.39197" lon="2.391">
        <ele>638</ele>
        <time>2015-10-25T09:33:41Z</time>
      </trkpt>
      <trkpt lat="45.39205" lon="2.39108">
        <ele>638</ele>
        <time>2015-10-25T09:33:43Z</time>
      </trkpt>
      <trkpt lat="45.39216" lon="2.39116">
        <ele>637</ele>
        <time>2015-10-25T09:33:45Z</time>
      </trkpt>
      <trkpt lat="45.39227" lon="2.39126">
        <ele>637</ele>
        <time>2015-10-25T09:33:47Z</time>
      </trkpt>
      <trkpt lat="45.39239" lon="2.39135">
        <ele>635</ele>
        <time>2015-10-25T09:33:49Z</time>
      </trkpt>
      <trkpt lat="45.39246" lon="2.3914">
        <ele>635</ele>
        <time>2015-10-25T09:33:50Z</time>
      </trkpt>
      <trkpt lat="45.39256" lon="2.39151">
        <ele>635</ele>
        <time>2015-10-25T09:33:52Z</time>
      </trkpt>
      <trkpt lat="45.3927" lon="2.39162">
        <ele>634</ele>
        <time>2015-10-25T09:33:54Z</time>
      </trkpt>
      <trkpt lat="45.39283" lon="2.39173">
        <ele>634</ele>
        <time>2015-10-25T09:33:56Z</time>
      </trkpt>
      <trkpt lat="45.3929" lon="2.39177">
        <ele>633</ele>
        <time>2015-10-25T09:33:57Z</time>
      </trkpt>
      <trkpt lat="45.39297" lon="2.39178">
        <ele>635</ele>
        <time>2015-10-25T09:33:58Z</time>
      </trkpt>
      <trkpt lat="45.39304" lon="2.39181">
        <ele>635</ele>
        <time>2015-10-25T09:33:59Z</time>
      </trkpt>
      <trkpt lat="45.39317" lon="2.39192">
        <ele>635</ele>
        <time>2015-10-25T09:34:01Z</time>
      </trkpt>
      <trkpt lat="45.39325" lon="2.39195">
        <ele>635</ele>
        <time>2015-10-25T09:34:02Z</time>
      </trkpt>
      <trkpt lat="45.39334" lon="2.39194">
        <ele>634</ele>
        <time>2015-10-25T09:34:03Z</time>
      </trkpt>
      <trkpt lat="45.39349" lon="2.39193">
        <ele>634</ele>
        <time>2015-10-25T09:34:05Z</time>
      </trkpt>
      <trkpt lat="45.39364" lon="2.39188">
        <ele>635</ele>
        <time>2015-10-25T09:34:07Z</time>
      </trkpt>
      <trkpt lat="45.39387" lon="2.39192">
        <ele>632</ele>
        <time>2015-10-25T09:34:11Z</time>
      </trkpt>
      <trkpt lat="45.39399" lon="2.39196">
        <ele>631</ele>
        <time>2015-10-25T09:34:12Z</time>
      </trkpt>
      <trkpt lat="45.39408" lon="2.392">
        <ele>632</ele>
        <time>2015-10-25T09:34:13Z</time>
      </trkpt>
      <trkpt lat="45.39421" lon="2.39201">
        <ele>632</ele>
        <time>2015-10-25T09:34:15Z</time>
      </trkpt>
      <trkpt lat="45.39431" lon="2.39205">
        <ele>632</ele>
        <time>2015-10-25T09:34:16Z</time>
      </trkpt>
      <trkpt lat="45.3944" lon="2.39207">
        <ele>633</ele>
        <time>2015-10-25T09:34:17Z</time>
      </trkpt>
      <trkpt lat="45.39449" lon="2.39206">
        <ele>633</ele>
        <time>2015-10-25T09:34:18Z</time>
      </trkpt>
      <trkpt lat="45.3946" lon="2.39204">
        <ele>632</ele>
        <time>2015-10-25T09:34:19Z</time>
      </trkpt>
      <trkpt lat="45.39467" lon="2.39198">
        <ele>633</ele>
        <time>2015-10-25T09:34:20Z</time>
      </trkpt>
      <trkpt lat="45.39473" lon="2.39188">
        <ele>632</ele>
        <time>2015-10-25T09:34:21Z</time>
      </trkpt>
      <trkpt lat="45.39478" lon="2.39178">
        <ele>630</ele>
        <time>2015-10-25T09:34:22Z</time>
      </trkpt>
      <trkpt lat="45.39482" lon="2.39168">
        <ele>648</ele>
        <time>2015-10-25T09:34:23Z</time>
      </trkpt>
      <trkpt lat="45.39487" lon="2.39155">
        <ele>646</ele>
        <time>2015-10-25T09:34:24Z</time>
      </trkpt>
      <trkpt lat="45.39483" lon="2.39141">
        <ele>642</ele>
        <time>2015-10-25T09:34:25Z</time>
      </trkpt>
      <trkpt lat="45.39484" lon="2.3913">
        <ele>638</ele>
        <time>2015-10-25T09:34:26Z</time>
      </trkpt>
      <trkpt lat="45.3949" lon="2.39121">
        <ele>647</ele>
        <time>2015-10-25T09:34:27Z</time>
      </trkpt>
      <trkpt lat="45.39494" lon="2.39111">
        <ele>643</ele>
        <time>2015-10-25T09:34:28Z</time>
      </trkpt>
      <trkpt lat="45.39502" lon="2.39106">
        <ele>639</ele>
        <time>2015-10-25T09:34:29Z</time>
      </trkpt>
      <trkpt lat="45.39511" lon="2.39104">
        <ele>636</ele>
        <time>2015-10-25T09:34:30Z</time>
      </trkpt>
      <trkpt lat="45.3952" lon="2.391">
        <ele>634</ele>
        <time>2015-10-25T09:34:31Z</time>
      </trkpt>
      <trkpt lat="45.39529" lon="2.39097">
        <ele>633</ele>
        <time>2015-10-25T09:34:32Z</time>
      </trkpt>
      <trkpt lat="45.39536" lon="2.39096">
        <ele>631</ele>
        <time>2015-10-25T09:34:33Z</time>
      </trkpt>
      <trkpt lat="45.39544" lon="2.39092">
        <ele>629</ele>
        <time>2015-10-25T09:34:34Z</time>
      </trkpt>
      <trkpt lat="45.39551" lon="2.39085">
        <ele>629</ele>
        <time>2015-10-25T09:34:35Z</time>
      </trkpt>
      <trkpt lat="45.39559" lon="2.3908">
        <ele>627</ele>
        <time>2015-10-25T09:34:36Z</time>
      </trkpt>
      <trkpt lat="45.39566" lon="2.39074">
        <ele>647</ele>
        <time>2015-10-25T09:34:37Z</time>
      </trkpt>
      <trkpt lat="45.39576" lon="2.39077">
        <ele>643</ele>
        <time>2015-10-25T09:34:38Z</time>
      </trkpt>
      <trkpt lat="45.39586" lon="2.3908">
        <ele>638</ele>
        <time>2015-10-25T09:34:39Z</time>
      </trkpt>
      <trkpt lat="45.39597" lon="2.3908">
        <ele>632</ele>
        <time>2015-10-25T09:34:40Z</time>
      </trkpt>
      <trkpt lat="45.39607" lon="2.39082">
        <ele>629</ele>
        <time>2015-10-25T09:34:41Z</time>
      </trkpt>
      <trkpt lat="45.39616" lon="2.39082">
        <ele>625</ele>
        <time>2015-10-25T09:34:42Z</time>
      </trkpt>
      <trkpt lat="45.39623" lon="2.39084">
        <ele>623</ele>
        <time>2015-10-25T09:34:43Z</time>
      </trkpt>
      <trkpt lat="45.39636" lon="2.39088">
        <ele>621</ele>
        <time>2015-10-25T09:34:45Z</time>
      </trkpt>
      <trkpt lat="45.39645" lon="2.39099">
        <ele>644</ele>
        <time>2015-10-25T09:34:47Z</time>
      </trkpt>
      <trkpt lat="45.39649" lon="2.3911">
        <ele>633</ele>
        <time>2015-10-25T09:34:49Z</time>
      </trkpt>
      <trkpt lat="45.39649" lon="2.39121">
        <ele>623</ele>
        <time>2015-10-25T09:34:52Z</time>
      </trkpt>
      <trkpt lat="45.3965" lon="2.39134">
        <ele>619</ele>
        <time>2015-10-25T09:34:56Z</time>
      </trkpt>
      <trkpt lat="45.39653" lon="2.39146">
        <ele>618</ele>
        <time>2015-10-25T09:35:00Z</time>
      </trkpt>
      <trkpt lat="45.39658" lon="2.39156">
        <ele>623</ele>
        <time>2015-10-25T09:35:04Z</time>
      </trkpt>
      <trkpt lat="45.39662" lon="2.39165">
        <ele>621</ele>
        <time>2015-10-25T09:35:08Z</time>
      </trkpt>
      <trkpt lat="45.39666" lon="2.39174">
        <ele>620</ele>
        <time>2015-10-25T09:35:12Z</time>
      </trkpt>
      <trkpt lat="45.39671" lon="2.39185">
        <ele>626</ele>
        <time>2015-10-25T09:35:16Z</time>
      </trkpt>
      <trkpt lat="45.39676" lon="2.39196">
        <ele>625</ele>
        <time>2015-10-25T09:35:20Z</time>
      </trkpt>
      <trkpt lat="45.3968" lon="2.39208">
        <ele>623</ele>
        <time>2015-10-25T09:35:24Z</time>
      </trkpt>
      <trkpt lat="45.39684" lon="2.39216">
        <ele>624</ele>
        <time>2015-10-25T09:35:27Z</time>
      </trkpt>
      <trkpt lat="45.39688" lon="2.39225">
        <ele>624</ele>
        <time>2015-10-25T09:35:30Z</time>
      </trkpt>
      <trkpt lat="45.39691" lon="2.39236">
        <ele>624</ele>
        <time>2015-10-25T09:35:34Z</time>
      </trkpt>
      <trkpt lat="45.39697" lon="2.39245">
        <ele>630</ele>
        <time>2015-10-25T09:35:38Z</time>
      </trkpt>
      <trkpt lat="45.39698" lon="2.39248">
        <ele>626</ele>
        <time>2015-10-25T09:35:45Z</time>
      </trkpt>
      <trkpt lat="45.39699" lon="2.39248">
        <ele>628</ele>
        <time>2015-10-25T09:35:51Z</time>
      </trkpt>
      <trkpt lat="45.39699" lon="2.39248">
        <ele>629</ele>
        <time>2015-10-25T09:35:59Z</time>
      </trkpt>
      <trkpt lat="45.39699" lon="2.39247">
        <ele>628</ele>
        <time>2015-10-25T09:36:00Z</time>
      </trkpt>
      <trkpt lat="45.397" lon="2.39244">
        <ele>629</ele>
        <time>2015-10-25T09:36:08Z</time>
      </trkpt>
      <trkpt lat="45.397" lon="2.39245">
        <ele>629</ele>
        <time>2015-10-25T09:36:11Z</time>
      </trkpt>
      <trkpt lat="45.397" lon="2.39245">
        <ele>629</ele>
        <time>2015-10-25T09:36:24Z</time>
      </trkpt>
      <trkpt lat="45.397" lon="2.39245">
        <ele>629</ele>
        <time>2015-10-25T09:36:25Z</time>
      </trkpt>
      <trkpt lat="45.39699" lon="2.39245">
        <ele>628</ele>
        <time>2015-10-25T09:36:33Z</time>
      </trkpt>
      <trkpt lat="45.39699" lon="2.39245">
        <ele>627</ele>
        <time>2015-10-25T09:36:34Z</time>
      </trkpt>
      <trkpt lat="45.39698" lon="2.39244">
        <ele>628</ele>
        <time>2015-10-25T09:37:45Z</time>
      </trkpt>
      <trkpt lat="45.39698" lon="2.39243">
        <ele>628</ele>
        <time>2015-10-25T09:37:46Z</time>
      </trkpt>
      <trkpt lat="45.39701" lon="2.39241">
        <ele>628</ele>
        <time>2015-10-25T09:37:53Z</time>
      </trkpt>
      <trkpt lat="45.39707" lon="2.39241">
        <ele>630</ele>
        <time>2015-10-25T09:38:00Z</time>
      </trkpt>
      <trkpt lat="45.39712" lon="2.39231">
        <ele>628</ele>
        <time>2015-10-25T09:38:05Z</time>
      </trkpt>
      <trkpt lat="45.39718" lon="2.39221">
        <ele>628</ele>
        <time>2015-10-25T09:38:08Z</time>
      </trkpt>
      <trkpt lat="45.39723" lon="2.39211">
        <ele>629</ele>
        <time>2015-10-25T09:38:11Z</time>
      </trkpt>
      <trkpt lat="45.39729" lon="2.392">
        <ele>628</ele>
        <time>2015-10-25T09:38:14Z</time>
      </trkpt>
      <trkpt lat="45.39735" lon="2.39191">
        <ele>628</ele>
        <time>2015-10-25T09:38:17Z</time>
      </trkpt>
      <trkpt lat="45.39741" lon="2.39183">
        <ele>628</ele>
        <time>2015-10-25T09:38:20Z</time>
      </trkpt>
      <trkpt lat="45.39746" lon="2.39176">
        <ele>626</ele>
        <time>2015-10-25T09:38:23Z</time>
      </trkpt>
      <trkpt lat="45.39752" lon="2.39167">
        <ele>627</ele>
        <time>2015-10-25T09:38:26Z</time>
      </trkpt>
      <trkpt lat="45.39758" lon="2.39158">
        <ele>626</ele>
        <time>2015-10-25T09:38:28Z</time>
      </trkpt>
      <trkpt lat="45.39764" lon="2.39148">
        <ele>626</ele>
        <time>2015-10-25T09:38:30Z</time>
      </trkpt>
      <trkpt lat="45.39771" lon="2.39134">
        <ele>625</ele>
        <time>2015-10-25T09:38:32Z</time>
      </trkpt>
      <trkpt lat="45.39775" lon="2.39121">
        <ele>624</ele>
        <time>2015-10-25T09:38:34Z</time>
      </trkpt>
      <trkpt lat="45.39782" lon="2.39107">
        <ele>625</ele>
        <time>2015-10-25T09:38:36Z</time>
      </trkpt>
      <trkpt lat="45.39786" lon="2.39094">
        <ele>625</ele>
        <time>2015-10-25T09:38:38Z</time>
      </trkpt>
      <trkpt lat="45.39789" lon="2.3908">
        <ele>625</ele>
        <time>2015-10-25T09:38:40Z</time>
      </trkpt>
      <trkpt lat="45.39794" lon="2.3907">
        <ele>626</ele>
        <time>2015-10-25T09:38:42Z</time>
      </trkpt>
      <trkpt lat="45.39798" lon="2.39056">
        <ele>626</ele>
        <time>2015-10-25T09:38:45Z</time>
      </trkpt>
      <trkpt lat="45.398" lon="2.39045">
        <ele>626</ele>
        <time>2015-10-25T09:38:47Z</time>
      </trkpt>
      <trkpt lat="45.39805" lon="2.39038">
        <ele>627</ele>
        <time>2015-10-25T09:38:49Z</time>
      </trkpt>
      <trkpt lat="45.39814" lon="2.39031">
        <ele>627</ele>
        <time>2015-10-25T09:38:52Z</time>
      </trkpt>
      <trkpt lat="45.39822" lon="2.39029">
        <ele>628</ele>
        <time>2015-10-25T09:38:55Z</time>
      </trkpt>
      <trkpt lat="45.39831" lon="2.39033">
        <ele>628</ele>
        <time>2015-10-25T09:38:58Z</time>
      </trkpt>
      <trkpt lat="45.3984" lon="2.39037">
        <ele>628</ele>
        <time>2015-10-25T09:39:01Z</time>
      </trkpt>
      <trkpt lat="45.3985" lon="2.3904">
        <ele>628</ele>
        <time>2015-10-25T09:39:04Z</time>
      </trkpt>
      <trkpt lat="45.39859" lon="2.39044">
        <ele>628</ele>
        <time>2015-10-25T09:39:07Z</time>
      </trkpt>
      <trkpt lat="45.39869" lon="2.39047">
        <ele>627</ele>
        <time>2015-10-25T09:39:10Z</time>
      </trkpt>
      <trkpt lat="45.39876" lon="2.39049">
        <ele>631</ele>
        <time>2015-10-25T09:39:12Z</time>
      </trkpt>
      <trkpt lat="45.39886" lon="2.3905">
        <ele>631</ele>
        <time>2015-10-25T09:39:15Z</time>
      </trkpt>
      <trkpt lat="45.39896" lon="2.39048">
        <ele>630</ele>
        <time>2015-10-25T09:39:18Z</time>
      </trkpt>
      <trkpt lat="45.39903" lon="2.39037">
        <ele>631</ele>
        <time>2015-10-25T09:39:21Z</time>
      </trkpt>
      <trkpt lat="45.39907" lon="2.39028">
        <ele>631</ele>
        <time>2015-10-25T09:39:23Z</time>
      </trkpt>
      <trkpt lat="45.39911" lon="2.39015">
        <ele>629</ele>
        <time>2015-10-25T09:39:26Z</time>
      </trkpt>
      <trkpt lat="45.39916" lon="2.39002">
        <ele>630</ele>
        <time>2015-10-25T09:39:29Z</time>
      </trkpt>
      <trkpt lat="45.39921" lon="2.3899">
        <ele>632</ele>
        <time>2015-10-25T09:39:32Z</time>
      </trkpt>
      <trkpt lat="45.3993" lon="2.38982">
        <ele>631</ele>
        <time>2015-10-25T09:39:35Z</time>
      </trkpt>
      <trkpt lat="45.39939" lon="2.38977">
        <ele>630</ele>
        <time>2015-10-25T09:39:38Z</time>
      </trkpt>
      <trkpt lat="45.39949" lon="2.3897">
        <ele>633</ele>
        <time>2015-10-25T09:39:41Z</time>
      </trkpt>
      <trkpt lat="45.39955" lon="2.38965">
        <ele>631</ele>
        <time>2015-10-25T09:39:43Z</time>
      </trkpt>
      <trkpt lat="45.39965" lon="2.38963">
        <ele>633</ele>
        <time>2015-10-25T09:39:46Z</time>
      </trkpt>
      <trkpt lat="45.39973" lon="2.3896">
        <ele>631</ele>
        <time>2015-10-25T09:39:49Z</time>
      </trkpt>
      <trkpt lat="45.39981" lon="2.38954">
        <ele>632</ele>
        <time>2015-10-25T09:39:52Z</time>
      </trkpt>
      <trkpt lat="45.39988" lon="2.38947">
        <ele>634</ele>
        <time>2015-10-25T09:39:55Z</time>
      </trkpt>
      <trkpt lat="45.39996" lon="2.38941">
        <ele>634</ele>
        <time>2015-10-25T09:39:58Z</time>
      </trkpt>
      <trkpt lat="45.40004" lon="2.38935">
        <ele>631</ele>
        <time>2015-10-25T09:40:01Z</time>
      </trkpt>
      <trkpt lat="45.40011" lon="2.3893">
        <ele>631</ele>
        <time>2015-10-25T09:40:04Z</time>
      </trkpt>
      <trkpt lat="45.40018" lon="2.38924">
        <ele>630</ele>
        <time>2015-10-25T09:40:07Z</time>
      </trkpt>
      <trkpt lat="45.40025" lon="2.38916">
        <ele>629</ele>
        <time>2015-10-25T09:40:10Z</time>
      </trkpt>
      <trkpt lat="45.4003" lon="2.38904">
        <ele>629</ele>
        <time>2015-10-25T09:40:13Z</time>
      </trkpt>
      <trkpt lat="45.40033" lon="2.38888">
        <ele>628</ele>
        <time>2015-10-25T09:40:16Z</time>
      </trkpt>
      <trkpt lat="45.40036" lon="2.3887">
        <ele>626</ele>
        <time>2015-10-25T09:40:18Z</time>
      </trkpt>
      <trkpt lat="45.40029" lon="2.38857">
        <ele>625</ele>
        <time>2015-10-25T09:40:20Z</time>
      </trkpt>
      <trkpt lat="45.40018" lon="2.38847">
        <ele>627</ele>
        <time>2015-10-25T09:40:22Z</time>
      </trkpt>
      <trkpt lat="45.40012" lon="2.38834">
        <ele>626</ele>
        <time>2015-10-25T09:40:24Z</time>
      </trkpt>
      <trkpt lat="45.40009" lon="2.38815">
        <ele>626</ele>
        <time>2015-10-25T09:40:26Z</time>
      </trkpt>
      <trkpt lat="45.4001" lon="2.38798">
        <ele>625</ele>
        <time>2015-10-25T09:40:28Z</time>
      </trkpt>
      <trkpt lat="45.40009" lon="2.38782">
        <ele>626</ele>
        <time>2015-10-25T09:40:30Z</time>
      </trkpt>
      <trkpt lat="45.4001" lon="2.38767">
        <ele>626</ele>
        <time>2015-10-25T09:40:32Z</time>
      </trkpt>
      <trkpt lat="45.4001" lon="2.38751">
        <ele>628</ele>
        <time>2015-10-25T09:40:34Z</time>
      </trkpt>
      <trkpt lat="45.40008" lon="2.38733">
        <ele>629</ele>
        <time>2015-10-25T09:40:36Z</time>
      </trkpt>
      <trkpt lat="45.40013" lon="2.38719">
        <ele>627</ele>
        <time>2015-10-25T09:40:38Z</time>
      </trkpt>
      <trkpt lat="45.40019" lon="2.38707">
        <ele>626</ele>
        <time>2015-10-25T09:40:40Z</time>
      </trkpt>
      <trkpt lat="45.40025" lon="2.38688">
        <ele>627</ele>
        <time>2015-10-25T09:40:42Z</time>
      </trkpt>
      <trkpt lat="45.40033" lon="2.38673">
        <ele>627</ele>
        <time>2015-10-25T09:40:44Z</time>
      </trkpt>
      <trkpt lat="45.40038" lon="2.38656">
        <ele>626</ele>
        <time>2015-10-25T09:40:46Z</time>
      </trkpt>
      <trkpt lat="45.4004" lon="2.38646">
        <ele>628</ele>
        <time>2015-10-25T09:40:47Z</time>
      </trkpt>
      <trkpt lat="45.40041" lon="2.38628">
        <ele>628</ele>
        <time>2015-10-25T09:40:49Z</time>
      </trkpt>
      <trkpt lat="45.40044" lon="2.38609">
        <ele>627</ele>
        <time>2015-10-25T09:40:51Z</time>
      </trkpt>
      <trkpt lat="45.40045" lon="2.3859">
        <ele>627</ele>
        <time>2015-10-25T09:40:53Z</time>
      </trkpt>
      <trkpt lat="45.40044" lon="2.38571">
        <ele>627</ele>
        <time>2015-10-25T09:40:55Z</time>
      </trkpt>
      <trkpt lat="45.40046" lon="2.38552">
        <ele>626</ele>
        <time>2015-10-25T09:40:57Z</time>
      </trkpt>
      <trkpt lat="45.40046" lon="2.38534">
        <ele>625</ele>
        <time>2015-10-25T09:40:59Z</time>
      </trkpt>
      <trkpt lat="45.40044" lon="2.38514">
        <ele>625</ele>
        <time>2015-10-25T09:41:01Z</time>
      </trkpt>
      <trkpt lat="45.40042" lon="2.38493">
        <ele>626</ele>
        <time>2015-10-25T09:41:03Z</time>
      </trkpt>
      <trkpt lat="45.40041" lon="2.38474">
        <ele>624</ele>
        <time>2015-10-25T09:41:05Z</time>
      </trkpt>
      <trkpt lat="45.4004" lon="2.38455">
        <ele>623</ele>
        <time>2015-10-25T09:41:07Z</time>
      </trkpt>
      <trkpt lat="45.4004" lon="2.38435">
        <ele>623</ele>
        <time>2015-10-25T09:41:09Z</time>
      </trkpt>
      <trkpt lat="45.4004" lon="2.38424">
        <ele>625</ele>
        <time>2015-10-25T09:41:10Z</time>
      </trkpt>
      <trkpt lat="45.40038" lon="2.38412">
        <ele>623</ele>
        <time>2015-10-25T09:41:11Z</time>
      </trkpt>
      <trkpt lat="45.40038" lon="2.38402">
        <ele>623</ele>
        <time>2015-10-25T09:41:12Z</time>
      </trkpt>
      <trkpt lat="45.40038" lon="2.38391">
        <ele>622</ele>
        <time>2015-10-25T09:41:13Z</time>
      </trkpt>
      <trkpt lat="45.40038" lon="2.3838">
        <ele>620</ele>
        <time>2015-10-25T09:41:14Z</time>
      </trkpt>
      <trkpt lat="45.40038" lon="2.38368">
        <ele>620</ele>
        <time>2015-10-25T09:41:15Z</time>
      </trkpt>
      <trkpt lat="45.40038" lon="2.38356">
        <ele>620</ele>
        <time>2015-10-25T09:41:16Z</time>
      </trkpt>
      <trkpt lat="45.40039" lon="2.38343">
        <ele>621</ele>
        <time>2015-10-25T09:41:17Z</time>
      </trkpt>
      <trkpt lat="45.4004" lon="2.3833">
        <ele>621</ele>
        <time>2015-10-25T09:41:18Z</time>
      </trkpt>
      <trkpt lat="45.40042" lon="2.38317">
        <ele>621</ele>
        <time>2015-10-25T09:41:19Z</time>
      </trkpt>
      <trkpt lat="45.40044" lon="2.38302">
        <ele>620</ele>
        <time>2015-10-25T09:41:20Z</time>
      </trkpt>
      <trkpt lat="45.40044" lon="2.38279">
        <ele>618</ele>
        <time>2015-10-25T09:41:22Z</time>
      </trkpt>
      <trkpt lat="45.40044" lon="2.38262">
        <ele>618</ele>
        <time>2015-10-25T09:41:24Z</time>
      </trkpt>
      <trkpt lat="45.40046" lon="2.38244">
        <ele>617</ele>
        <time>2015-10-25T09:41:26Z</time>
      </trkpt>
      <trkpt lat="45.4005" lon="2.38225">
        <ele>618</ele>
        <time>2015-10-25T09:41:28Z</time>
      </trkpt>
      <trkpt lat="45.40057" lon="2.38214">
        <ele>619</ele>
        <time>2015-10-25T09:41:30Z</time>
      </trkpt>
      <trkpt lat="45.40065" lon="2.38205">
        <ele>618</ele>
        <time>2015-10-25T09:41:32Z</time>
      </trkpt>
      <trkpt lat="45.40075" lon="2.38193">
        <ele>617</ele>
        <time>2015-10-25T09:41:34Z</time>
      </trkpt>
      <trkpt lat="45.40087" lon="2.38179">
        <ele>616</ele>
        <time>2015-10-25T09:41:36Z</time>
      </trkpt>
      <trkpt lat="45.40094" lon="2.38171">
        <ele>615</ele>
        <time>2015-10-25T09:41:37Z</time>
      </trkpt>
      <trkpt lat="45.401" lon="2.38162">
        <ele>615</ele>
        <time>2015-10-25T09:41:38Z</time>
      </trkpt>
      <trkpt lat="45.40105" lon="2.38155">
        <ele>620</ele>
        <time>2015-10-25T09:41:39Z</time>
      </trkpt>
      <trkpt lat="45.40114" lon="2.38137">
        <ele>617</ele>
        <time>2015-10-25T09:41:41Z</time>
      </trkpt>
      <trkpt lat="45.40117" lon="2.38127">
        <ele>616</ele>
        <time>2015-10-25T09:41:42Z</time>
      </trkpt>
      <trkpt lat="45.4012" lon="2.38105">
        <ele>614</ele>
        <time>2015-10-25T09:41:44Z</time>
      </trkpt>
      <trkpt lat="45.40126" lon="2.38088">
        <ele>611</ele>
        <time>2015-10-25T09:41:46Z</time>
      </trkpt>
      <trkpt lat="45.4013" lon="2.38073">
        <ele>610</ele>
        <time>2015-10-25T09:41:48Z</time>
      </trkpt>
      <trkpt lat="45.40135" lon="2.38062">
        <ele>621</ele>
        <time>2015-10-25T09:41:50Z</time>
      </trkpt>
      <trkpt lat="45.40139" lon="2.38051">
        <ele>618</ele>
        <time>2015-10-25T09:41:52Z</time>
      </trkpt>
      <trkpt lat="45.40142" lon="2.3804">
        <ele>614</ele>
        <time>2015-10-25T09:41:55Z</time>
      </trkpt>
      <trkpt lat="45.40149" lon="2.38034">
        <ele>613</ele>
        <time>2015-10-25T09:41:59Z</time>
      </trkpt>
      <trkpt lat="45.40152" lon="2.38023">
        <ele>616</ele>
        <time>2015-10-25T09:42:03Z</time>
      </trkpt>
      <trkpt lat="45.40157" lon="2.38013">
        <ele>614</ele>
        <time>2015-10-25T09:42:07Z</time>
      </trkpt>
      <trkpt lat="45.40162" lon="2.38003">
        <ele>617</ele>
        <time>2015-10-25T09:42:12Z</time>
      </trkpt>
      <trkpt lat="45.40165" lon="2.37993">
        <ele>615</ele>
        <time>2015-10-25T09:42:16Z</time>
      </trkpt>
      <trkpt lat="45.40171" lon="2.37985">
        <ele>618</ele>
        <time>2015-10-25T09:42:20Z</time>
      </trkpt>
      <trkpt lat="45.40177" lon="2.37977">
        <ele>616</ele>
        <time>2015-10-25T09:42:25Z</time>
      </trkpt>
      <trkpt lat="45.4018" lon="2.37965">
        <ele>621</ele>
        <time>2015-10-25T09:42:30Z</time>
      </trkpt>
      <trkpt lat="45.4018" lon="2.37955">
        <ele>622</ele>
        <time>2015-10-25T09:42:35Z</time>
      </trkpt>
      <trkpt lat="45.40174" lon="2.37949">
        <ele>622</ele>
        <time>2015-10-25T09:42:42Z</time>
      </trkpt>
      <trkpt lat="45.4017" lon="2.3795">
        <ele>624</ele>
        <time>2015-10-25T09:42:49Z</time>
      </trkpt>
      <trkpt lat="45.40162" lon="2.37946">
        <ele>618</ele>
        <time>2015-10-25T09:42:56Z</time>
      </trkpt>
      <trkpt lat="45.40155" lon="2.37939">
        <ele>621</ele>
        <time>2015-10-25T09:43:01Z</time>
      </trkpt>
      <trkpt lat="45.40148" lon="2.37936">
        <ele>619</ele>
        <time>2015-10-25T09:43:06Z</time>
      </trkpt>
      <trkpt lat="45.4014" lon="2.37932">
        <ele>620</ele>
        <time>2015-10-25T09:43:11Z</time>
      </trkpt>
      <trkpt lat="45.40133" lon="2.3793">
        <ele>620</ele>
        <time>2015-10-25T09:43:16Z</time>
      </trkpt>
      <trkpt lat="45.40127" lon="2.37923">
        <ele>623</ele>
        <time>2015-10-25T09:43:22Z</time>
      </trkpt>
      <trkpt lat="45.40125" lon="2.37917">
        <ele>624</ele>
        <time>2015-10-25T09:43:29Z</time>
      </trkpt>
      <trkpt lat="45.40126" lon="2.37908">
        <ele>624</ele>
        <time>2015-10-25T09:43:36Z</time>
      </trkpt>
      <trkpt lat="45.40127" lon="2.37899">
        <ele>626</ele>
        <time>2015-10-25T09:43:43Z</time>
      </trkpt>
      <trkpt lat="45.40128" lon="2.37893">
        <ele>628</ele>
        <time>2015-10-25T09:43:50Z</time>
      </trkpt>
      <trkpt lat="45.40131" lon="2.3789">
        <ele>630</ele>
        <time>2015-10-25T09:43:57Z</time>
      </trkpt>
      <trkpt lat="45.40132" lon="2.37888">
        <ele>631</ele>
        <time>2015-10-25T09:44:04Z</time>
      </trkpt>
      <trkpt lat="45.40133" lon="2.37888">
        <ele>631</ele>
        <time>2015-10-25T09:44:05Z</time>
      </trkpt>
      <trkpt lat="45.40136" lon="2.37882">
        <ele>630</ele>
        <time>2015-10-25T09:44:13Z</time>
      </trkpt>
      <trkpt lat="45.40139" lon="2.37879">
        <ele>630</ele>
        <time>2015-10-25T09:44:20Z</time>
      </trkpt>
      <trkpt lat="45.40144" lon="2.37874">
        <ele>636</ele>
        <time>2015-10-25T09:44:27Z</time>
      </trkpt>
      <trkpt lat="45.40149" lon="2.37871">
        <ele>635</ele>
        <time>2015-10-25T09:44:34Z</time>
      </trkpt>
      <trkpt lat="45.40153" lon="2.3787">
        <ele>634</ele>
        <time>2015-10-25T09:44:41Z</time>
      </trkpt>
      <trkpt lat="45.40155" lon="2.37868">
        <ele>639</ele>
        <time>2015-10-25T09:44:48Z</time>
      </trkpt>
      <trkpt lat="45.40158" lon="2.37864">
        <ele>636</ele>
        <time>2015-10-25T09:44:55Z</time>
      </trkpt>
      <trkpt lat="45.40163" lon="2.3786">
        <ele>637</ele>
        <time>2015-10-25T09:45:02Z</time>
      </trkpt>
      <trkpt lat="45.40167" lon="2.37857">
        <ele>632</ele>
        <time>2015-10-25T09:45:09Z</time>
      </trkpt>
      <trkpt lat="45.40169" lon="2.37851">
        <ele>637</ele>
        <time>2015-10-25T09:45:16Z</time>
      </trkpt>
      <trkpt lat="45.40171" lon="2.37846">
        <ele>638</ele>
        <time>2015-10-25T09:45:23Z</time>
      </trkpt>
      <trkpt lat="45.40171" lon="2.37841">
        <ele>637</ele>
        <time>2015-10-25T09:45:30Z</time>
      </trkpt>
      <trkpt lat="45.4017" lon="2.37834">
        <ele>645</ele>
        <time>2015-10-25T09:45:37Z</time>
      </trkpt>
      <trkpt lat="45.40169" lon="2.37828">
        <ele>643</ele>
        <time>2015-10-25T09:45:44Z</time>
      </trkpt>
      <trkpt lat="45.40168" lon="2.3782">
        <ele>642</ele>
        <time>2015-10-25T09:45:51Z</time>
      </trkpt>
      <trkpt lat="45.40165" lon="2.37815">
        <ele>647</ele>
        <time>2015-10-25T09:45:58Z</time>
      </trkpt>
      <trkpt lat="45.40163" lon="2.37809">
        <ele>650</ele>
        <time>2015-10-25T09:46:05Z</time>
      </trkpt>
      <trkpt lat="45.40162" lon="2.37804">
        <ele>646</ele>
        <time>2015-10-25T09:46:12Z</time>
      </trkpt>
      <trkpt lat="45.40165" lon="2.37797">
        <ele>639</ele>
        <time>2015-10-25T09:46:19Z</time>
      </trkpt>
      <trkpt lat="45.40168" lon="2.3779">
        <ele>648</ele>
        <time>2015-10-25T09:46:26Z</time>
      </trkpt>
      <trkpt lat="45.40167" lon="2.37786">
        <ele>647</ele>
        <time>2015-10-25T09:46:33Z</time>
      </trkpt>
      <trkpt lat="45.40167" lon="2.37785">
        <ele>649</ele>
        <time>2015-10-25T09:46:35Z</time>
      </trkpt>
      <trkpt lat="45.40168" lon="2.37776">
        <ele>645</ele>
        <time>2015-10-25T09:46:42Z</time>
      </trkpt>
      <trkpt lat="45.40171" lon="2.37766">
        <ele>652</ele>
        <time>2015-10-25T09:46:47Z</time>
      </trkpt>
      <trkpt lat="45.40172" lon="2.37759">
        <ele>652</ele>
        <time>2015-10-25T09:46:54Z</time>
      </trkpt>
      <trkpt lat="45.40178" lon="2.37752">
        <ele>641</ele>
        <time>2015-10-25T09:47:01Z</time>
      </trkpt>
      <trkpt lat="45.4018" lon="2.3774">
        <ele>653</ele>
        <time>2015-10-25T09:47:07Z</time>
      </trkpt>
      <trkpt lat="45.40186" lon="2.37731">
        <ele>641</ele>
        <time>2015-10-25T09:47:11Z</time>
      </trkpt>
      <trkpt lat="45.40191" lon="2.37722">
        <ele>650</ele>
        <time>2015-10-25T09:47:17Z</time>
      </trkpt>
      <trkpt lat="45.40195" lon="2.37712">
        <ele>644</ele>
        <time>2015-10-25T09:47:23Z</time>
      </trkpt>
      <trkpt lat="45.402" lon="2.37704">
        <ele>646</ele>
        <time>2015-10-25T09:47:28Z</time>
      </trkpt>
      <trkpt lat="45.40205" lon="2.37697">
        <ele>641</ele>
        <time>2015-10-25T09:47:32Z</time>
      </trkpt>
      <trkpt lat="45.40211" lon="2.37691">
        <ele>650</ele>
        <time>2015-10-25T09:47:37Z</time>
      </trkpt>
      <trkpt lat="45.40209" lon="2.37683">
        <ele>654</ele>
        <time>2015-10-25T09:47:44Z</time>
      </trkpt>
      <trkpt lat="45.40211" lon="2.37671">
        <ele>652</ele>
        <time>2015-10-25T09:47:50Z</time>
      </trkpt>
      <trkpt lat="45.4021" lon="2.37659">
        <ele>653</ele>
        <time>2015-10-25T09:47:54Z</time>
      </trkpt>
      <trkpt lat="45.40209" lon="2.37648">
        <ele>655</ele>
        <time>2015-10-25T09:48:00Z</time>
      </trkpt>
      <trkpt lat="45.40208" lon="2.37642">
        <ele>654</ele>
        <time>2015-10-25T09:48:07Z</time>
      </trkpt>
      <trkpt lat="45.40214" lon="2.37641">
        <ele>661</ele>
        <time>2015-10-25T09:48:14Z</time>
      </trkpt>
      <trkpt lat="45.40215" lon="2.37641">
        <ele>661</ele>
        <time>2015-10-25T09:48:22Z</time>
      </trkpt>
      <trkpt lat="45.40216" lon="2.3764">
        <ele>663</ele>
        <time>2015-10-25T09:48:24Z</time>
      </trkpt>
      <trkpt lat="45.40216" lon="2.37641">
        <ele>660</ele>
        <time>2015-10-25T09:48:34Z</time>
      </trkpt>
      <trkpt lat="45.40216" lon="2.37641">
        <ele>662</ele>
        <time>2015-10-25T09:48:35Z</time>
      </trkpt>
      <trkpt lat="45.40216" lon="2.37641">
        <ele>658</ele>
        <time>2015-10-25T09:48:59Z</time>
      </trkpt>
      <trkpt lat="45.40216" lon="2.37641">
        <ele>661</ele>
        <time>2015-10-25T09:49:00Z</time>
      </trkpt>
      <trkpt lat="45.40214" lon="2.3763">
        <ele>655</ele>
        <time>2015-10-25T09:49:09Z</time>
      </trkpt>
      <trkpt lat="45.40214" lon="2.3762">
        <ele>657</ele>
        <time>2015-10-25T09:49:15Z</time>
      </trkpt>
      <trkpt lat="45.40215" lon="2.37611">
        <ele>660</ele>
        <time>2015-10-25T09:49:22Z</time>
      </trkpt>
      <trkpt lat="45.40215" lon="2.376">
        <ele>661</ele>
        <time>2015-10-25T09:49:28Z</time>
      </trkpt>
      <trkpt lat="45.40217" lon="2.37589">
        <ele>659</ele>
        <time>2015-10-25T09:49:35Z</time>
      </trkpt>
      <trkpt lat="45.4022" lon="2.37578">
        <ele>663</ele>
        <time>2015-10-25T09:49:42Z</time>
      </trkpt>
      <trkpt lat="45.40225" lon="2.3757">
        <ele>655</ele>
        <time>2015-10-25T09:49:49Z</time>
      </trkpt>
      <trkpt lat="45.40227" lon="2.3756">
        <ele>660</ele>
        <time>2015-10-25T09:49:56Z</time>
      </trkpt>
      <trkpt lat="45.40228" lon="2.37548">
        <ele>660</ele>
        <time>2015-10-25T09:50:02Z</time>
      </trkpt>
      <trkpt lat="45.40227" lon="2.37536">
        <ele>665</ele>
        <time>2015-10-25T09:50:08Z</time>
      </trkpt>
      <trkpt lat="45.40233" lon="2.37526">
        <ele>664</ele>
        <time>2015-10-25T09:50:14Z</time>
      </trkpt>
      <trkpt lat="45.40238" lon="2.37518">
        <ele>660</ele>
        <time>2015-10-25T09:50:20Z</time>
      </trkpt>
      <trkpt lat="45.40243" lon="2.3751">
        <ele>667</ele>
        <time>2015-10-25T09:50:27Z</time>
      </trkpt>
      <trkpt lat="45.40244" lon="2.37503">
        <ele>665</ele>
        <time>2015-10-25T09:50:34Z</time>
      </trkpt>
      <trkpt lat="45.40245" lon="2.37493">
        <ele>662</ele>
        <time>2015-10-25T09:50:41Z</time>
      </trkpt>
      <trkpt lat="45.40248" lon="2.37485">
        <ele>672</ele>
        <time>2015-10-25T09:50:48Z</time>
      </trkpt>
      <trkpt lat="45.40251" lon="2.37477">
        <ele>657</ele>
        <time>2015-10-25T09:50:55Z</time>
      </trkpt>
      <trkpt lat="45.40255" lon="2.37468">
        <ele>670</ele>
        <time>2015-10-25T09:51:01Z</time>
      </trkpt>
      <trkpt lat="45.4026" lon="2.37462">
        <ele>669</ele>
        <time>2015-10-25T09:51:08Z</time>
      </trkpt>
      <trkpt lat="45.40265" lon="2.37455">
        <ele>674</ele>
        <time>2015-10-25T09:51:14Z</time>
      </trkpt>
      <trkpt lat="45.40272" lon="2.37449">
        <ele>659</ele>
        <time>2015-10-25T09:51:19Z</time>
      </trkpt>
      <trkpt lat="45.40277" lon="2.37441">
        <ele>667</ele>
        <time>2015-10-25T09:51:22Z</time>
      </trkpt>
      <trkpt lat="45.40284" lon="2.3743">
        <ele>671</ele>
        <time>2015-10-25T09:51:25Z</time>
      </trkpt>
      <trkpt lat="45.40286" lon="2.37418">
        <ele>674</ele>
        <time>2015-10-25T09:51:28Z</time>
      </trkpt>
      <trkpt lat="45.4029" lon="2.37407">
        <ele>670</ele>
        <time>2015-10-25T09:51:33Z</time>
      </trkpt>
      <trkpt lat="45.40294" lon="2.37397">
        <ele>658</ele>
        <time>2015-10-25T09:51:36Z</time>
      </trkpt>
      <trkpt lat="45.40299" lon="2.37388">
        <ele>667</ele>
        <time>2015-10-25T09:51:39Z</time>
      </trkpt>
      <trkpt lat="45.40303" lon="2.37378">
        <ele>673</ele>
        <time>2015-10-25T09:51:43Z</time>
      </trkpt>
      <trkpt lat="45.40306" lon="2.37368">
        <ele>667</ele>
        <time>2015-10-25T09:51:48Z</time>
      </trkpt>
      <trkpt lat="45.40307" lon="2.37356">
        <ele>671</ele>
        <time>2015-10-25T09:51:54Z</time>
      </trkpt>
      <trkpt lat="45.4031" lon="2.37346">
        <ele>660</ele>
        <time>2015-10-25T09:51:57Z</time>
      </trkpt>
      <trkpt lat="45.40315" lon="2.37338">
        <ele>660</ele>
        <time>2015-10-25T09:52:00Z</time>
      </trkpt>
      <trkpt lat="45.4032" lon="2.37327">
        <ele>657</ele>
        <time>2015-10-25T09:52:03Z</time>
      </trkpt>
      <trkpt lat="45.40323" lon="2.37317">
        <ele>655</ele>
        <time>2015-10-25T09:52:05Z</time>
      </trkpt>
      <trkpt lat="45.40322" lon="2.37306">
        <ele>649</ele>
        <time>2015-10-25T09:52:07Z</time>
      </trkpt>
      <trkpt lat="45.4032" lon="2.37293">
        <ele>651</ele>
        <time>2015-10-25T09:52:10Z</time>
      </trkpt>
      <trkpt lat="45.40317" lon="2.3728">
        <ele>629</ele>
        <time>2015-10-25T09:52:13Z</time>
      </trkpt>
      <trkpt lat="45.40314" lon="2.37269">
        <ele>630</ele>
        <time>2015-10-25T09:52:16Z</time>
      </trkpt>
      <trkpt lat="45.4031" lon="2.37258">
        <ele>631</ele>
        <time>2015-10-25T09:52:19Z</time>
      </trkpt>
      <trkpt lat="45.40307" lon="2.37245">
        <ele>646</ele>
        <time>2015-10-25T09:52:22Z</time>
      </trkpt>
      <trkpt lat="45.40303" lon="2.37235">
        <ele>651</ele>
        <time>2015-10-25T09:52:24Z</time>
      </trkpt>
      <trkpt lat="45.40299" lon="2.37223">
        <ele>658</ele>
        <time>2015-10-25T09:52:27Z</time>
      </trkpt>
      <trkpt lat="45.40294" lon="2.37211">
        <ele>639</ele>
        <time>2015-10-25T09:52:30Z</time>
      </trkpt>
      <trkpt lat="45.4029" lon="2.37203">
        <ele>651</ele>
        <time>2015-10-25T09:52:33Z</time>
      </trkpt>
      <trkpt lat="45.40286" lon="2.37194">
        <ele>657</ele>
        <time>2015-10-25T09:52:36Z</time>
      </trkpt>
      <trkpt lat="45.40281" lon="2.37184">
        <ele>639</ele>
        <time>2015-10-25T09:52:40Z</time>
      </trkpt>
      <trkpt lat="45.40277" lon="2.37173">
        <ele>645</ele>
        <time>2015-10-25T09:52:44Z</time>
      </trkpt>
      <trkpt lat="45.40275" lon="2.37163">
        <ele>655</ele>
        <time>2015-10-25T09:52:47Z</time>
      </trkpt>
      <trkpt lat="45.4027" lon="2.37152">
        <ele>662</ele>
        <time>2015-10-25T09:52:50Z</time>
      </trkpt>
      <trkpt lat="45.40264" lon="2.37142">
        <ele>641</ele>
        <time>2015-10-25T09:52:53Z</time>
      </trkpt>
      <trkpt lat="45.40257" lon="2.37134">
        <ele>657</ele>
        <time>2015-10-25T09:52:56Z</time>
      </trkpt>
      <trkpt lat="45.40251" lon="2.37126">
        <ele>665</ele>
        <time>2015-10-25T09:52:59Z</time>
      </trkpt>
      <trkpt lat="45.40244" lon="2.37118">
        <ele>643</ele>
        <time>2015-10-25T09:53:02Z</time>
      </trkpt>
      <trkpt lat="45.40237" lon="2.3711">
        <ele>660</ele>
        <time>2015-10-25T09:53:05Z</time>
      </trkpt>
      <trkpt lat="45.4023" lon="2.37103">
        <ele>647</ele>
        <time>2015-10-25T09:53:08Z</time>
      </trkpt>
      <trkpt lat="45.40224" lon="2.37097">
        <ele>657</ele>
        <time>2015-10-25T09:53:10Z</time>
      </trkpt>
      <trkpt lat="45.40217" lon="2.37088">
        <ele>661</ele>
        <time>2015-10-25T09:53:12Z</time>
      </trkpt>
      <trkpt lat="45.4021" lon="2.37079">
        <ele>664</ele>
        <time>2015-10-25T09:53:14Z</time>
      </trkpt>
      <trkpt lat="45.40202" lon="2.37073">
        <ele>664</ele>
        <time>2015-10-25T09:53:16Z</time>
      </trkpt>
      <trkpt lat="45.40193" lon="2.37067">
        <ele>640</ele>
        <time>2015-10-25T09:53:19Z</time>
      </trkpt>
      <trkpt lat="45.40185" lon="2.37064">
        <ele>647</ele>
        <time>2015-10-25T09:53:21Z</time>
      </trkpt>
      <trkpt lat="45.40175" lon="2.37059">
        <ele>654</ele>
        <time>2015-10-25T09:53:23Z</time>
      </trkpt>
      <trkpt lat="45.40167" lon="2.37054">
        <ele>656</ele>
        <time>2015-10-25T09:53:25Z</time>
      </trkpt>
      <trkpt lat="45.4016" lon="2.37048">
        <ele>633</ele>
        <time>2015-10-25T09:53:27Z</time>
      </trkpt>
      <trkpt lat="45.40154" lon="2.37042">
        <ele>645</ele>
        <time>2015-10-25T09:53:29Z</time>
      </trkpt>
      <trkpt lat="45.40146" lon="2.3704">
        <ele>655</ele>
        <time>2015-10-25T09:53:32Z</time>
      </trkpt>
      <trkpt lat="45.4014" lon="2.37046">
        <ele>639</ele>
        <time>2015-10-25T09:53:38Z</time>
      </trkpt>
      <trkpt lat="45.40134" lon="2.37054">
        <ele>661</ele>
        <time>2015-10-25T09:53:44Z</time>
      </trkpt>
      <trkpt lat="45.40126" lon="2.37059">
        <ele>656</ele>
        <time>2015-10-25T09:53:51Z</time>
      </trkpt>
      <trkpt lat="45.4012" lon="2.37065">
        <ele>635</ele>
        <time>2015-10-25T09:53:57Z</time>
      </trkpt>
      <trkpt lat="45.40113" lon="2.37071">
        <ele>659</ele>
        <time>2015-10-25T09:54:03Z</time>
      </trkpt>
      <trkpt lat="45.40107" lon="2.37079">
        <ele>649</ele>
        <time>2015-10-25T09:54:09Z</time>
      </trkpt>
      <trkpt lat="45.40101" lon="2.37085">
        <ele>666</ele>
        <time>2015-10-25T09:54:14Z</time>
      </trkpt>
      <trkpt lat="45.40095" lon="2.37092">
        <ele>657</ele>
        <time>2015-10-25T09:54:21Z</time>
      </trkpt>
      <trkpt lat="45.40089" lon="2.37097">
        <ele>674</ele>
        <time>2015-10-25T09:54:28Z</time>
      </trkpt>
      <trkpt lat="45.40089" lon="2.37099">
        <ele>668</ele>
        <time>2015-10-25T09:54:33Z</time>
      </trkpt>
      <trkpt lat="45.40085" lon="2.37108">
        <ele>650</ele>
        <time>2015-10-25T09:54:40Z</time>
      </trkpt>
      <trkpt lat="45.40081" lon="2.37118">
        <ele>667</ele>
        <time>2015-10-25T09:54:46Z</time>
      </trkpt>
      <trkpt lat="45.40078" lon="2.37128">
        <ele>655</ele>
        <time>2015-10-25T09:54:51Z</time>
      </trkpt>
      <trkpt lat="45.40075" lon="2.37139">
        <ele>674</ele>
        <time>2015-10-25T09:54:58Z</time>
      </trkpt>
      <trkpt lat="45.40074" lon="2.37147">
        <ele>667</ele>
        <time>2015-10-25T09:55:05Z</time>
      </trkpt>
      <trkpt lat="45.40073" lon="2.37155">
        <ele>655</ele>
        <time>2015-10-25T09:55:12Z</time>
      </trkpt>
      <trkpt lat="45.40074" lon="2.37165">
        <ele>637</ele>
        <time>2015-10-25T09:55:19Z</time>
      </trkpt>
      <trkpt lat="45.40069" lon="2.37174">
        <ele>668</ele>
        <time>2015-10-25T09:55:26Z</time>
      </trkpt>
      <trkpt lat="45.40067" lon="2.37177">
        <ele>662</ele>
        <time>2015-10-25T09:55:33Z</time>
      </trkpt>
      <trkpt lat="45.40063" lon="2.37186">
        <ele>651</ele>
        <time>2015-10-25T09:55:40Z</time>
      </trkpt>
      <trkpt lat="45.40061" lon="2.37192">
        <ele>678</ele>
        <time>2015-10-25T09:55:47Z</time>
      </trkpt>
      <trkpt lat="45.40057" lon="2.37198">
        <ele>677</ele>
        <time>2015-10-25T09:55:54Z</time>
      </trkpt>
      <trkpt lat="45.40053" lon="2.37203">
        <ele>664</ele>
        <time>2015-10-25T09:56:01Z</time>
      </trkpt>
      <trkpt lat="45.40051" lon="2.37209">
        <ele>691</ele>
        <time>2015-10-25T09:56:08Z</time>
      </trkpt>
      <trkpt lat="45.4005" lon="2.37218">
        <ele>692</ele>
        <time>2015-10-25T09:56:15Z</time>
      </trkpt>
      <trkpt lat="45.40052" lon="2.37223">
        <ele>690</ele>
        <time>2015-10-25T09:56:22Z</time>
      </trkpt>
      <trkpt lat="45.40058" lon="2.37225">
        <ele>665</ele>
        <time>2015-10-25T09:56:29Z</time>
      </trkpt>
      <trkpt lat="45.40063" lon="2.37226">
        <ele>694</ele>
        <time>2015-10-25T09:56:36Z</time>
      </trkpt>
      <trkpt lat="45.4007" lon="2.37224">
        <ele>690</ele>
        <time>2015-10-25T09:56:43Z</time>
      </trkpt>
      <trkpt lat="45.40072" lon="2.37225">
        <ele>682</ele>
        <time>2015-10-25T09:56:50Z</time>
      </trkpt>
      <trkpt lat="45.40072" lon="2.37224">
        <ele>690</ele>
        <time>2015-10-25T09:56:52Z</time>
      </trkpt>
      <trkpt lat="45.4008" lon="2.37224">
        <ele>676</ele>
        <time>2015-10-25T09:57:00Z</time>
      </trkpt>
      <trkpt lat="45.40087" lon="2.37226">
        <ele>694</ele>
        <time>2015-10-25T09:57:06Z</time>
      </trkpt>
      <trkpt lat="45.40094" lon="2.37223">
        <ele>677</ele>
        <time>2015-10-25T09:57:11Z</time>
      </trkpt>
      <trkpt lat="45.40101" lon="2.37218">
        <ele>694</ele>
        <time>2015-10-25T09:57:16Z</time>
      </trkpt>
      <trkpt lat="45.40109" lon="2.37214">
        <ele>684</ele>
        <time>2015-10-25T09:57:22Z</time>
      </trkpt>
      <trkpt lat="45.40116" lon="2.37208">
        <ele>703</ele>
        <time>2015-10-25T09:57:28Z</time>
      </trkpt>
      <trkpt lat="45.40123" lon="2.37202">
        <ele>700</ele>
        <time>2015-10-25T09:57:34Z</time>
      </trkpt>
      <trkpt lat="45.4013" lon="2.372">
        <ele>685</ele>
        <time>2015-10-25T09:57:40Z</time>
      </trkpt>
      <trkpt lat="45.40138" lon="2.37197">
        <ele>705</ele>
        <time>2015-10-25T09:57:47Z</time>
      </trkpt>
      <trkpt lat="45.40142" lon="2.37204">
        <ele>697</ele>
        <time>2015-10-25T09:57:54Z</time>
      </trkpt>
      <trkpt lat="45.40139" lon="2.37215">
        <ele>677</ele>
        <time>2015-10-25T09:58:01Z</time>
      </trkpt>
      <trkpt lat="45.40138" lon="2.37226">
        <ele>699</ele>
        <time>2015-10-25T09:58:08Z</time>
      </trkpt>
      <trkpt lat="45.40136" lon="2.37236">
        <ele>691</ele>
        <time>2015-10-25T09:58:14Z</time>
      </trkpt>
      <trkpt lat="45.40134" lon="2.37248">
        <ele>672</ele>
        <time>2015-10-25T09:58:21Z</time>
      </trkpt>
      <trkpt lat="45.40131" lon="2.37257">
        <ele>705</ele>
        <time>2015-10-25T09:58:27Z</time>
      </trkpt>
      <trkpt lat="45.40127" lon="2.37267">
        <ele>694</ele>
        <time>2015-10-25T09:58:33Z</time>
      </trkpt>
      <trkpt lat="45.40124" lon="2.37278">
        <ele>658</ele>
        <time>2015-10-25T09:58:39Z</time>
      </trkpt>
      <trkpt lat="45.4012" lon="2.37288">
        <ele>706</ele>
        <time>2015-10-25T09:58:45Z</time>
      </trkpt>
      <trkpt lat="45.40117" lon="2.37297">
        <ele>695</ele>
        <time>2015-10-25T09:58:52Z</time>
      </trkpt>
      <trkpt lat="45.40113" lon="2.37307">
        <ele>712</ele>
        <time>2015-10-25T09:58:58Z</time>
      </trkpt>
      <trkpt lat="45.40109" lon="2.37317">
        <ele>700</ele>
        <time>2015-10-25T09:59:04Z</time>
      </trkpt>
      <trkpt lat="45.40106" lon="2.37328">
        <ele>654</ele>
        <time>2015-10-25T09:59:10Z</time>
      </trkpt>
      <trkpt lat="45.40101" lon="2.37337">
        <ele>703</ele>
        <time>2015-10-25T09:59:15Z</time>
      </trkpt>
      <trkpt lat="45.40096" lon="2.37347">
        <ele>673</ele>
        <time>2015-10-25T09:59:20Z</time>
      </trkpt>
      <trkpt lat="45.4009" lon="2.37356">
        <ele>710</ele>
        <time>2015-10-25T09:59:26Z</time>
      </trkpt>
      <trkpt lat="45.40088" lon="2.37367">
        <ele>695</ele>
        <time>2015-10-25T09:59:32Z</time>
      </trkpt>
      <trkpt lat="45.40085" lon="2.37376">
        <ele>717</ele>
        <time>2015-10-25T09:59:37Z</time>
      </trkpt>
      <trkpt lat="45.40082" lon="2.37386">
        <ele>708</ele>
        <time>2015-10-25T09:59:43Z</time>
      </trkpt>
      <trkpt lat="45.40083" lon="2.37392">
        <ele>694</ele>
        <time>2015-10-25T09:59:50Z</time>
      </trkpt>
      <trkpt lat="45.40082" lon="2.37393">
        <ele>725</ele>
        <time>2015-10-25T09:59:57Z</time>
      </trkpt>
      <trkpt lat="45.40082" lon="2.37394">
        <ele>710</ele>
        <time>2015-10-25T10:00:01Z</time>
      </trkpt>
      <trkpt lat="45.40078" lon="2.37403">
        <ele>711</ele>
        <time>2015-10-25T10:00:40Z</time>
      </trkpt>
      <trkpt lat="45.40074" lon="2.37411">
        <ele>688</ele>
        <time>2015-10-25T10:00:45Z</time>
      </trkpt>
      <trkpt lat="45.40071" lon="2.37421">
        <ele>661</ele>
        <time>2015-10-25T10:00:50Z</time>
      </trkpt>
      <trkpt lat="45.40071" lon="2.37424">
        <ele>716</ele>
        <time>2015-10-25T10:00:57Z</time>
      </trkpt>
      <trkpt lat="45.40072" lon="2.37425">
        <ele>721</ele>
        <time>2015-10-25T10:00:59Z</time>
      </trkpt>
      <trkpt lat="45.40073" lon="2.37429">
        <ele>715</ele>
        <time>2015-10-25T10:01:07Z</time>
      </trkpt>
      <trkpt lat="45.40073" lon="2.3743">
        <ele>679</ele>
        <time>2015-10-25T10:01:12Z</time>
      </trkpt>
      <trkpt lat="45.40074" lon="2.37431">
        <ele>720</ele>
        <time>2015-10-25T10:01:24Z</time>
      </trkpt>
      <trkpt lat="45.40074" lon="2.37431">
        <ele>722</ele>
        <time>2015-10-25T10:01:25Z</time>
      </trkpt>
      <trkpt lat="45.40073" lon="2.37432">
        <ele>725</ele>
        <time>2015-10-25T10:01:55Z</time>
      </trkpt>
      <trkpt lat="45.40073" lon="2.37434">
        <ele>679</ele>
        <time>2015-10-25T10:02:01Z</time>
      </trkpt>
      <trkpt lat="45.40074" lon="2.37429">
        <ele>719</ele>
        <time>2015-10-25T10:02:08Z</time>
      </trkpt>
      <trkpt lat="45.40074" lon="2.37426">
        <ele>706</ele>
        <time>2015-10-25T10:02:15Z</time>
      </trkpt>
      <trkpt lat="45.40074" lon="2.37426">
        <ele>713</ele>
        <time>2015-10-25T10:02:16Z</time>
      </trkpt>
      <trkpt lat="45.40075" lon="2.37426">
        <ele>686</ele>
        <time>2015-10-25T10:02:35Z</time>
      </trkpt>
      <trkpt lat="45.40075" lon="2.37426">
        <ele>696</ele>
        <time>2015-10-25T10:02:36Z</time>
      </trkpt>
      <trkpt lat="45.40076" lon="2.37426">
        <ele>715</ele>
        <time>2015-10-25T10:02:47Z</time>
      </trkpt>
      <trkpt lat="45.40076" lon="2.37426">
        <ele>718</ele>
        <time>2015-10-25T10:02:48Z</time>
      </trkpt>
      <trkpt lat="45.40071" lon="2.37427">
        <ele>723</ele>
        <time>2015-10-25T10:03:14Z</time>
      </trkpt>
      <trkpt lat="45.4007" lon="2.37429">
        <ele>714</ele>
        <time>2015-10-25T10:03:20Z</time>
      </trkpt>
      <trkpt lat="45.4007" lon="2.3743">
        <ele>699</ele>
        <time>2015-10-25T10:03:40Z</time>
      </trkpt>
      <trkpt lat="45.4007" lon="2.3743">
        <ele>707</ele>
        <time>2015-10-25T10:03:41Z</time>
      </trkpt>
      <trkpt lat="45.40072" lon="2.37429">
        <ele>682</ele>
        <time>2015-10-25T10:03:51Z</time>
      </trkpt>
      <trkpt lat="45.40072" lon="2.37429">
        <ele>698</ele>
        <time>2015-10-25T10:03:52Z</time>
      </trkpt>
      <trkpt lat="45.4007" lon="2.37436">
        <ele>719</ele>
        <time>2015-10-25T10:04:01Z</time>
      </trkpt>
      <trkpt lat="45.40064" lon="2.37444">
        <ele>707</ele>
        <time>2015-10-25T10:04:06Z</time>
      </trkpt>
      <trkpt lat="45.40055" lon="2.37445">
        <ele>720</ele>
        <time>2015-10-25T10:04:10Z</time>
      </trkpt>
      <trkpt lat="45.40047" lon="2.37444">
        <ele>725</ele>
        <time>2015-10-25T10:04:15Z</time>
      </trkpt>
      <trkpt lat="45.4004" lon="2.37451">
        <ele>708</ele>
        <time>2015-10-25T10:04:19Z</time>
      </trkpt>
      <trkpt lat="45.40035" lon="2.3746">
        <ele>716</ele>
        <time>2015-10-25T10:04:23Z</time>
      </trkpt>
      <trkpt lat="45.40034" lon="2.3747">
        <ele>705</ele>
        <time>2015-10-25T10:04:27Z</time>
      </trkpt>
      <trkpt lat="45.40035" lon="2.37483">
        <ele>709</ele>
        <time>2015-10-25T10:04:31Z</time>
      </trkpt>
      <trkpt lat="45.40035" lon="2.37494">
        <ele>681</ele>
        <time>2015-10-25T10:04:34Z</time>
      </trkpt>
      <trkpt lat="45.40034" lon="2.37506">
        <ele>673</ele>
        <time>2015-10-25T10:04:37Z</time>
      </trkpt>
      <trkpt lat="45.40032" lon="2.37517">
        <ele>698</ele>
        <time>2015-10-25T10:04:41Z</time>
      </trkpt>
      <trkpt lat="45.40031" lon="2.37527">
        <ele>657</ele>
        <time>2015-10-25T10:04:46Z</time>
      </trkpt>
      <trkpt lat="45.40023" lon="2.37534">
        <ele>694</ele>
        <time>2015-10-25T10:04:51Z</time>
      </trkpt>
      <trkpt lat="45.40016" lon="2.37536">
        <ele>700</ele>
        <time>2015-10-25T10:04:54Z</time>
      </trkpt>
      <trkpt lat="45.40008" lon="2.37538">
        <ele>678</ele>
        <time>2015-10-25T10:04:57Z</time>
      </trkpt>
      <trkpt lat="45.39999" lon="2.37539">
        <ele>694</ele>
        <time>2015-10-25T10:05:00Z</time>
      </trkpt>
      <trkpt lat="45.3999" lon="2.37545">
        <ele>701</ele>
        <time>2015-10-25T10:05:03Z</time>
      </trkpt>
      <trkpt lat="45.39983" lon="2.37551">
        <ele>683</ele>
        <time>2015-10-25T10:05:06Z</time>
      </trkpt>
      <trkpt lat="45.39975" lon="2.37557">
        <ele>694</ele>
        <time>2015-10-25T10:05:09Z</time>
      </trkpt>
      <trkpt lat="45.39967" lon="2.37562">
        <ele>699</ele>
        <time>2015-10-25T10:05:12Z</time>
      </trkpt>
      <trkpt lat="45.39962" lon="2.37571">
        <ele>679</ele>
        <time>2015-10-25T10:05:16Z</time>
      </trkpt>
      <trkpt lat="45.3996" lon="2.37575">
        <ele>701</ele>
        <time>2015-10-25T10:05:23Z</time>
      </trkpt>
      <trkpt lat="45.3996" lon="2.37576">
        <ele>689</ele>
        <time>2015-10-25T10:05:26Z</time>
      </trkpt>
      <trkpt lat="45.39952" lon="2.37577">
        <ele>702</ele>
        <time>2015-10-25T10:05:34Z</time>
      </trkpt>
      <trkpt lat="45.39945" lon="2.3758">
        <ele>692</ele>
        <time>2015-10-25T10:05:38Z</time>
      </trkpt>
      <trkpt lat="45.39941" lon="2.37583">
        <ele>700</ele>
        <time>2015-10-25T10:05:45Z</time>
      </trkpt>
      <trkpt lat="45.39941" lon="2.37583">
        <ele>694</ele>
        <time>2015-10-25T10:05:47Z</time>
      </trkpt>
      <trkpt lat="45.39941" lon="2.37582">
        <ele>697</ele>
        <time>2015-10-25T10:05:55Z</time>
      </trkpt>
      <trkpt lat="45.39941" lon="2.37581">
        <ele>696</ele>
        <time>2015-10-25T10:05:58Z</time>
      </trkpt>
      <trkpt lat="45.3994" lon="2.3758">
        <ele>695</ele>
        <time>2015-10-25T10:06:37Z</time>
      </trkpt>
      <trkpt lat="45.3994" lon="2.3758">
        <ele>696</ele>
        <time>2015-10-25T10:06:38Z</time>
      </trkpt>
      <trkpt lat="45.39935" lon="2.37573">
        <ele>690</ele>
        <time>2015-10-25T10:06:50Z</time>
      </trkpt>
      <trkpt lat="45.39932" lon="2.37563">
        <ele>693</ele>
        <time>2015-10-25T10:06:54Z</time>
      </trkpt>
      <trkpt lat="45.39929" lon="2.37553">
        <ele>694</ele>
        <time>2015-10-25T10:06:57Z</time>
      </trkpt>
      <trkpt lat="45.39925" lon="2.37541">
        <ele>690</ele>
        <time>2015-10-25T10:07:01Z</time>
      </trkpt>
      <trkpt lat="45.39922" lon="2.37529">
        <ele>693</ele>
        <time>2015-10-25T10:07:04Z</time>
      </trkpt>
      <trkpt lat="45.39918" lon="2.37517">
        <ele>693</ele>
        <time>2015-10-25T10:07:07Z</time>
      </trkpt>
      <trkpt lat="45.39914" lon="2.37503">
        <ele>691</ele>
        <time>2015-10-25T10:07:10Z</time>
      </trkpt>
      <trkpt lat="45.39911" lon="2.37493">
        <ele>693</ele>
        <time>2015-10-25T10:07:12Z</time>
      </trkpt>
      <trkpt lat="45.39906" lon="2.37481">
        <ele>693</ele>
        <time>2015-10-25T10:07:15Z</time>
      </trkpt>
      <trkpt lat="45.39901" lon="2.37471">
        <ele>686</ele>
        <time>2015-10-25T10:07:18Z</time>
      </trkpt>
      <trkpt lat="45.39896" lon="2.37463">
        <ele>690</ele>
        <time>2015-10-25T10:07:21Z</time>
      </trkpt>
      <trkpt lat="45.39891" lon="2.37454">
        <ele>692</ele>
        <time>2015-10-25T10:07:24Z</time>
      </trkpt>
      <trkpt lat="45.39887" lon="2.37445">
        <ele>692</ele>
        <time>2015-10-25T10:07:27Z</time>
      </trkpt>
      <trkpt lat="45.39882" lon="2.37437">
        <ele>686</ele>
        <time>2015-10-25T10:07:30Z</time>
      </trkpt>
      <trkpt lat="45.39878" lon="2.37427">
        <ele>686</ele>
        <time>2015-10-25T10:07:34Z</time>
      </trkpt>
      <trkpt lat="45.39871" lon="2.37432">
        <ele>686</ele>
        <time>2015-10-25T10:07:39Z</time>
      </trkpt>
      <trkpt lat="45.3987" lon="2.37445">
        <ele>683</ele>
        <time>2015-10-25T10:07:42Z</time>
      </trkpt>
      <trkpt lat="45.39869" lon="2.37456">
        <ele>673</ele>
        <time>2015-10-25T10:07:44Z</time>
      </trkpt>
      <trkpt lat="45.39868" lon="2.37467">
        <ele>675</ele>
        <time>2015-10-25T10:07:46Z</time>
      </trkpt>
      <trkpt lat="45.39867" lon="2.37479">
        <ele>676</ele>
        <time>2015-10-25T10:07:48Z</time>
      </trkpt>
      <trkpt lat="45.39868" lon="2.37489">
        <ele>676</ele>
        <time>2015-10-25T10:07:50Z</time>
      </trkpt>
      <trkpt lat="45.39864" lon="2.37504">
        <ele>661</ele>
        <time>2015-10-25T10:07:53Z</time>
      </trkpt>
      <trkpt lat="45.39862" lon="2.37515">
        <ele>665</ele>
        <time>2015-10-25T10:07:55Z</time>
      </trkpt>
      <trkpt lat="45.39862" lon="2.37528">
        <ele>668</ele>
        <time>2015-10-25T10:07:57Z</time>
      </trkpt>
      <trkpt lat="45.39862" lon="2.37553">
        <ele>669</ele>
        <time>2015-10-25T10:07:59Z</time>
      </trkpt>
      <trkpt lat="45.39864" lon="2.37574">
        <ele>669</ele>
        <time>2015-10-25T10:08:01Z</time>
      </trkpt>
      <trkpt lat="45.39863" lon="2.3759">
        <ele>656</ele>
        <time>2015-10-25T10:08:03Z</time>
      </trkpt>
      <trkpt lat="45.39864" lon="2.376">
        <ele>660</ele>
        <time>2015-10-25T10:08:05Z</time>
      </trkpt>
      <trkpt lat="45.39862" lon="2.37614">
        <ele>666</ele>
        <time>2015-10-25T10:08:08Z</time>
      </trkpt>
      <trkpt lat="45.39861" lon="2.37625">
        <ele>668</ele>
        <time>2015-10-25T10:08:12Z</time>
      </trkpt>
      <trkpt lat="45.39855" lon="2.37618">
        <ele>666</ele>
        <time>2015-10-25T10:08:18Z</time>
      </trkpt>
      <trkpt lat="45.39853" lon="2.37608">
        <ele>665</ele>
        <time>2015-10-25T10:08:21Z</time>
      </trkpt>
      <trkpt lat="45.3985" lon="2.37597">
        <ele>666</ele>
        <time>2015-10-25T10:08:24Z</time>
      </trkpt>
      <trkpt lat="45.39847" lon="2.37584">
        <ele>665</ele>
        <time>2015-10-25T10:08:27Z</time>
      </trkpt>
      <trkpt lat="45.39843" lon="2.37571">
        <ele>663</ele>
        <time>2015-10-25T10:08:30Z</time>
      </trkpt>
      <trkpt lat="45.39841" lon="2.37557">
        <ele>664</ele>
        <time>2015-10-25T10:08:33Z</time>
      </trkpt>
      <trkpt lat="45.39841" lon="2.37544">
        <ele>666</ele>
        <time>2015-10-25T10:08:36Z</time>
      </trkpt>
      <trkpt lat="45.39842" lon="2.37532">
        <ele>664</ele>
        <time>2015-10-25T10:08:39Z</time>
      </trkpt>
      <trkpt lat="45.39841" lon="2.37521">
        <ele>667</ele>
        <time>2015-10-25T10:08:42Z</time>
      </trkpt>
      <trkpt lat="45.3984" lon="2.3751">
        <ele>667</ele>
        <time>2015-10-25T10:08:45Z</time>
      </trkpt>
      <trkpt lat="45.39837" lon="2.37499">
        <ele>667</ele>
        <time>2015-10-25T10:08:48Z</time>
      </trkpt>
      <trkpt lat="45.39834" lon="2.37488">
        <ele>665</ele>
        <time>2015-10-25T10:08:51Z</time>
      </trkpt>
      <trkpt lat="45.39829" lon="2.37475">
        <ele>667</ele>
        <time>2015-10-25T10:08:54Z</time>
      </trkpt>
      <trkpt lat="45.39824" lon="2.37464">
        <ele>667</ele>
        <time>2015-10-25T10:08:57Z</time>
      </trkpt>
      <trkpt lat="45.39819" lon="2.37454">
        <ele>665</ele>
        <time>2015-10-25T10:09:01Z</time>
      </trkpt>
      <trkpt lat="45.3982" lon="2.37458">
        <ele>667</ele>
        <time>2015-10-25T10:09:08Z</time>
      </trkpt>
      <trkpt lat="45.39819" lon="2.37459">
        <ele>667</ele>
        <time>2015-10-25T10:09:15Z</time>
      </trkpt>
      <trkpt lat="45.39818" lon="2.3745">
        <ele>663</ele>
        <time>2015-10-25T10:09:22Z</time>
      </trkpt>
      <trkpt lat="45.39816" lon="2.37442">
        <ele>660</ele>
        <time>2015-10-25T10:09:29Z</time>
      </trkpt>
      <trkpt lat="45.39811" lon="2.37434">
        <ele>657</ele>
        <time>2015-10-25T10:09:36Z</time>
      </trkpt>
      <trkpt lat="45.39808" lon="2.37425">
        <ele>653</ele>
        <time>2015-10-25T10:09:43Z</time>
      </trkpt>
      <trkpt lat="45.39806" lon="2.37417">
        <ele>650</ele>
        <time>2015-10-25T10:09:50Z</time>
      </trkpt>
      <trkpt lat="45.39802" lon="2.37413">
        <ele>657</ele>
        <time>2015-10-25T10:09:57Z</time>
      </trkpt>
      <trkpt lat="45.39802" lon="2.37416">
        <ele>659</ele>
        <time>2015-10-25T10:10:04Z</time>
      </trkpt>
      <trkpt lat="45.39798" lon="2.37419">
        <ele>656</ele>
        <time>2015-10-25T10:10:11Z</time>
      </trkpt>
      <trkpt lat="45.39795" lon="2.37419">
        <ele>657</ele>
        <time>2015-10-25T10:10:18Z</time>
      </trkpt>
      <trkpt lat="45.39794" lon="2.3742">
        <ele>655</ele>
        <time>2015-10-25T10:10:21Z</time>
      </trkpt>
      <trkpt lat="45.3979" lon="2.37428">
        <ele>656</ele>
        <time>2015-10-25T10:10:28Z</time>
      </trkpt>
      <trkpt lat="45.39784" lon="2.37436">
        <ele>657</ele>
        <time>2015-10-25T10:10:35Z</time>
      </trkpt>
      <trkpt lat="45.39775" lon="2.37438">
        <ele>654</ele>
        <time>2015-10-25T10:10:40Z</time>
      </trkpt>
      <trkpt lat="45.39768" lon="2.3744">
        <ele>653</ele>
        <time>2015-10-25T10:10:45Z</time>
      </trkpt>
      <trkpt lat="45.39762" lon="2.37442">
        <ele>652</ele>
        <time>2015-10-25T10:10:52Z</time>
      </trkpt>
      <trkpt lat="45.39756" lon="2.37443">
        <ele>652</ele>
        <time>2015-10-25T10:10:59Z</time>
      </trkpt>
      <trkpt lat="45.39752" lon="2.37443">
        <ele>652</ele>
        <time>2015-10-25T10:11:06Z</time>
      </trkpt>
      <trkpt lat="45.39751" lon="2.37443">
        <ele>651</ele>
        <time>2015-10-25T10:11:10Z</time>
      </trkpt>
      <trkpt lat="45.39746" lon="2.37444">
        <ele>650</ele>
        <time>2015-10-25T10:11:18Z</time>
      </trkpt>
      <trkpt lat="45.39741" lon="2.37446">
        <ele>651</ele>
        <time>2015-10-25T10:11:25Z</time>
      </trkpt>
      <trkpt lat="45.39741" lon="2.37447">
        <ele>651</ele>
        <time>2015-10-25T10:11:28Z</time>
      </trkpt>
      <trkpt lat="45.39739" lon="2.37448">
        <ele>652</ele>
        <time>2015-10-25T10:11:38Z</time>
      </trkpt>
      <trkpt lat="45.39739" lon="2.37448">
        <ele>650</ele>
        <time>2015-10-25T10:11:40Z</time>
      </trkpt>
      <trkpt lat="45.39739" lon="2.37449">
        <ele>651</ele>
        <time>2015-10-25T10:11:49Z</time>
      </trkpt>
      <trkpt lat="45.39739" lon="2.37449">
        <ele>651</ele>
        <time>2015-10-25T10:11:50Z</time>
      </trkpt>
      <trkpt lat="45.39736" lon="2.37448">
        <ele>648</ele>
        <time>2015-10-25T10:12:01Z</time>
      </trkpt>
      <trkpt lat="45.39736" lon="2.37448">
        <ele>649</ele>
        <time>2015-10-25T10:12:02Z</time>
      </trkpt>
      <trkpt lat="45.39732" lon="2.37449">
        <ele>650</ele>
        <time>2015-10-25T10:12:09Z</time>
      </trkpt>
      <trkpt lat="45.39728" lon="2.3745">
        <ele>649</ele>
        <time>2015-10-25T10:12:16Z</time>
      </trkpt>
      <trkpt lat="45.39723" lon="2.37457">
        <ele>648</ele>
        <time>2015-10-25T10:12:22Z</time>
      </trkpt>
      <trkpt lat="45.39716" lon="2.37466">
        <ele>649</ele>
        <time>2015-10-25T10:12:26Z</time>
      </trkpt>
      <trkpt lat="45.39709" lon="2.37472">
        <ele>649</ele>
        <time>2015-10-25T10:12:29Z</time>
      </trkpt>
      <trkpt lat="45.39702" lon="2.37476">
        <ele>648</ele>
        <time>2015-10-25T10:12:32Z</time>
      </trkpt>
      <trkpt lat="45.39695" lon="2.3748">
        <ele>649</ele>
        <time>2015-10-25T10:12:35Z</time>
      </trkpt>
      <trkpt lat="45.39692" lon="2.3748">
        <ele>650</ele>
        <time>2015-10-25T10:12:42Z</time>
      </trkpt>
      <trkpt lat="45.39691" lon="2.37482">
        <ele>649</ele>
        <time>2015-10-25T10:12:47Z</time>
      </trkpt>
      <trkpt lat="45.39683" lon="2.37485">
        <ele>648</ele>
        <time>2015-10-25T10:12:55Z</time>
      </trkpt>
      <trkpt lat="45.39676" lon="2.37486">
        <ele>647</ele>
        <time>2015-10-25T10:12:58Z</time>
      </trkpt>
      <trkpt lat="45.39666" lon="2.37487">
        <ele>646</ele>
        <time>2015-10-25T10:13:01Z</time>
      </trkpt>
      <trkpt lat="45.39657" lon="2.37488">
        <ele>646</ele>
        <time>2015-10-25T10:13:04Z</time>
      </trkpt>
      <trkpt lat="45.39649" lon="2.37491">
        <ele>646</ele>
        <time>2015-10-25T10:13:07Z</time>
      </trkpt>
      <trkpt lat="45.3964" lon="2.37494">
        <ele>646</ele>
        <time>2015-10-25T10:13:11Z</time>
      </trkpt>
      <trkpt lat="45.39632" lon="2.37495">
        <ele>646</ele>
        <time>2015-10-25T10:13:14Z</time>
      </trkpt>
      <trkpt lat="45.39624" lon="2.37497">
        <ele>647</ele>
        <time>2015-10-25T10:13:17Z</time>
      </trkpt>
      <trkpt lat="45.39617" lon="2.37499">
        <ele>645</ele>
        <time>2015-10-25T10:13:20Z</time>
      </trkpt>
      <trkpt lat="45.39608" lon="2.37502">
        <ele>646</ele>
        <time>2015-10-25T10:13:24Z</time>
      </trkpt>
      <trkpt lat="45.396" lon="2.37503">
        <ele>645</ele>
        <time>2015-10-25T10:13:28Z</time>
      </trkpt>
      <trkpt lat="45.39592" lon="2.37502">
        <ele>646</ele>
        <time>2015-10-25T10:13:32Z</time>
      </trkpt>
      <trkpt lat="45.39588" lon="2.37501">
        <ele>644</ele>
        <time>2015-10-25T10:13:39Z</time>
      </trkpt>
      <trkpt lat="45.39588" lon="2.37504">
        <ele>644</ele>
        <time>2015-10-25T10:13:46Z</time>
      </trkpt>
      <trkpt lat="45.39588" lon="2.37504">
        <ele>644</ele>
        <time>2015-10-25T10:13:48Z</time>
      </trkpt>
      <trkpt lat="45.39591" lon="2.37513">
        <ele>644</ele>
        <time>2015-10-25T10:13:56Z</time>
      </trkpt>
      <trkpt lat="45.3959" lon="2.37513">
        <ele>644</ele>
        <time>2015-10-25T10:14:03Z</time>
      </trkpt>
      <trkpt lat="45.39589" lon="2.37514">
        <ele>643</ele>
        <time>2015-10-25T10:14:12Z</time>
      </trkpt>
      <trkpt lat="45.39589" lon="2.37515">
        <ele>643</ele>
        <time>2015-10-25T10:14:13Z</time>
      </trkpt>
      <trkpt lat="45.3959" lon="2.37514">
        <ele>642</ele>
        <time>2015-10-25T10:14:20Z</time>
      </trkpt>
      <trkpt lat="45.39589" lon="2.37514">
        <ele>642</ele>
        <time>2015-10-25T10:14:23Z</time>
      </trkpt>
      <trkpt lat="45.39581" lon="2.37514">
        <ele>643</ele>
        <time>2015-10-25T10:14:31Z</time>
      </trkpt>
      <trkpt lat="45.3958" lon="2.37514">
        <ele>643</ele>
        <time>2015-10-25T10:14:38Z</time>
      </trkpt>
      <trkpt lat="45.3958" lon="2.37514">
        <ele>643</ele>
        <time>2015-10-25T10:14:40Z</time>
      </trkpt>
      <trkpt lat="45.3958" lon="2.37515">
        <ele>642</ele>
        <time>2015-10-25T10:14:50Z</time>
      </trkpt>
      <trkpt lat="45.3958" lon="2.37515">
        <ele>642</ele>
        <time>2015-10-25T10:14:51Z</time>
      </trkpt>
      <trkpt lat="45.39581" lon="2.37515">
        <ele>642</ele>
        <time>2015-10-25T10:15:12Z</time>
      </trkpt>
      <trkpt lat="45.39581" lon="2.37515">
        <ele>642</ele>
        <time>2015-10-25T10:15:13Z</time>
      </trkpt>
      <trkpt lat="45.3958" lon="2.37515">
        <ele>643</ele>
        <time>2015-10-25T10:17:45Z</time>
      </trkpt>
      <trkpt lat="45.3958" lon="2.37515">
        <ele>643</ele>
        <time>2015-10-25T10:17:46Z</time>
      </trkpt>
      <trkpt lat="45.3958" lon="2.37516">
        <ele>643</ele>
        <time>2015-10-25T10:18:07Z</time>
      </trkpt>
      <trkpt lat="45.3958" lon="2.37516">
        <ele>643</ele>
        <time>2015-10-25T10:18:08Z</time>
      </trkpt>
      <trkpt lat="45.39579" lon="2.37515">
        <ele>643</ele>
        <time>2015-10-25T10:18:51Z</time>
      </trkpt>
      <trkpt lat="45.39579" lon="2.37515">
        <ele>643</ele>
        <time>2015-10-25T10:18:52Z</time>
      </trkpt>
      <trkpt lat="45.39577" lon="2.37525">
        <ele>642</ele>
        <time>2015-10-25T10:22:20Z</time>
      </trkpt>
      <trkpt lat="45.39574" lon="2.37534">
        <ele>642</ele>
        <time>2015-10-25T10:22:23Z</time>
      </trkpt>
      <trkpt lat="45.39571" lon="2.37546">
        <ele>641</ele>
        <time>2015-10-25T10:22:26Z</time>
      </trkpt>
      <trkpt lat="45.39567" lon="2.37555">
        <ele>641</ele>
        <time>2015-10-25T10:22:28Z</time>
      </trkpt>
      <trkpt lat="45.39565" lon="2.37567">
        <ele>641</ele>
        <time>2015-10-25T10:22:30Z</time>
      </trkpt>
      <trkpt lat="45.39562" lon="2.37582">
        <ele>641</ele>
        <time>2015-10-25T10:22:32Z</time>
      </trkpt>
      <trkpt lat="45.39558" lon="2.37596">
        <ele>640</ele>
        <time>2015-10-25T10:22:34Z</time>
      </trkpt>
      <trkpt lat="45.39554" lon="2.37613">
        <ele>639</ele>
        <time>2015-10-25T10:22:36Z</time>
      </trkpt>
      <trkpt lat="45.39551" lon="2.37631">
        <ele>639</ele>
        <time>2015-10-25T10:22:38Z</time>
      </trkpt>
      <trkpt lat="45.39546" lon="2.37649">
        <ele>638</ele>
        <time>2015-10-25T10:22:40Z</time>
      </trkpt>
      <trkpt lat="45.39541" lon="2.37668">
        <ele>638</ele>
        <time>2015-10-25T10:22:42Z</time>
      </trkpt>
      <trkpt lat="45.39535" lon="2.37686">
        <ele>637</ele>
        <time>2015-10-25T10:22:44Z</time>
      </trkpt>
      <trkpt lat="45.39531" lon="2.37707">
        <ele>636</ele>
        <time>2015-10-25T10:22:46Z</time>
      </trkpt>
      <trkpt lat="45.39528" lon="2.37717">
        <ele>635</ele>
        <time>2015-10-25T10:22:47Z</time>
      </trkpt>
      <trkpt lat="45.39525" lon="2.37728">
        <ele>635</ele>
        <time>2015-10-25T10:22:48Z</time>
      </trkpt>
      <trkpt lat="45.39519" lon="2.37746">
        <ele>635</ele>
        <time>2015-10-25T10:22:50Z</time>
      </trkpt>
      <trkpt lat="45.39516" lon="2.37756">
        <ele>631</ele>
        <time>2015-10-25T10:22:51Z</time>
      </trkpt>
      <trkpt lat="45.39513" lon="2.37766">
        <ele>632</ele>
        <time>2015-10-25T10:22:52Z</time>
      </trkpt>
      <trkpt lat="45.39507" lon="2.37784">
        <ele>632</ele>
        <time>2015-10-25T10:22:54Z</time>
      </trkpt>
      <trkpt lat="45.39498" lon="2.37798">
        <ele>633</ele>
        <time>2015-10-25T10:22:56Z</time>
      </trkpt>
      <trkpt lat="45.39486" lon="2.3779">
        <ele>632</ele>
        <time>2015-10-25T10:22:58Z</time>
      </trkpt>
      <trkpt lat="45.39482" lon="2.37782">
        <ele>632</ele>
        <time>2015-10-25T10:22:59Z</time>
      </trkpt>
      <trkpt lat="45.39475" lon="2.37766">
        <ele>632</ele>
        <time>2015-10-25T10:23:01Z</time>
      </trkpt>
      <trkpt lat="45.39465" lon="2.37759">
        <ele>631</ele>
        <time>2015-10-25T10:23:03Z</time>
      </trkpt>
      <trkpt lat="45.39455" lon="2.37751">
        <ele>632</ele>
        <time>2015-10-25T10:23:05Z</time>
      </trkpt>
      <trkpt lat="45.39444" lon="2.37753">
        <ele>632</ele>
        <time>2015-10-25T10:23:07Z</time>
      </trkpt>
      <trkpt lat="45.39435" lon="2.37755">
        <ele>632</ele>
        <time>2015-10-25T10:23:09Z</time>
      </trkpt>
      <trkpt lat="45.39428" lon="2.37757">
        <ele>632</ele>
        <time>2015-10-25T10:23:11Z</time>
      </trkpt>
      <trkpt lat="45.39421" lon="2.37761">
        <ele>630</ele>
        <time>2015-10-25T10:23:13Z</time>
      </trkpt>
      <trkpt lat="45.39412" lon="2.37763">
        <ele>636</ele>
        <time>2015-10-25T10:23:17Z</time>
      </trkpt>
      <trkpt lat="45.39405" lon="2.37764">
        <ele>634</ele>
        <time>2015-10-25T10:23:20Z</time>
      </trkpt>
      <trkpt lat="45.39397" lon="2.37764">
        <ele>636</ele>
        <time>2015-10-25T10:23:23Z</time>
      </trkpt>
      <trkpt lat="45.39389" lon="2.37764">
        <ele>636</ele>
        <time>2015-10-25T10:23:26Z</time>
      </trkpt>
      <trkpt lat="45.39381" lon="2.37765">
        <ele>633</ele>
        <time>2015-10-25T10:23:29Z</time>
      </trkpt>
      <trkpt lat="45.39372" lon="2.37767">
        <ele>635</ele>
        <time>2015-10-25T10:23:32Z</time>
      </trkpt>
      <trkpt lat="45.39362" lon="2.3777">
        <ele>636</ele>
        <time>2015-10-25T10:23:35Z</time>
      </trkpt>
      <trkpt lat="45.39353" lon="2.37773">
        <ele>637</ele>
        <time>2015-10-25T10:23:38Z</time>
      </trkpt>
      <trkpt lat="45.39343" lon="2.37776">
        <ele>636</ele>
        <time>2015-10-25T10:23:41Z</time>
      </trkpt>
      <trkpt lat="45.39335" lon="2.37777">
        <ele>638</ele>
        <time>2015-10-25T10:23:44Z</time>
      </trkpt>
      <trkpt lat="45.39326" lon="2.37782">
        <ele>637</ele>
        <time>2015-10-25T10:23:47Z</time>
      </trkpt>
      <trkpt lat="45.39318" lon="2.37784">
        <ele>638</ele>
        <time>2015-10-25T10:23:50Z</time>
      </trkpt>
      <trkpt lat="45.39309" lon="2.37787">
        <ele>638</ele>
        <time>2015-10-25T10:23:53Z</time>
      </trkpt>
      <trkpt lat="45.393" lon="2.37789">
        <ele>639</ele>
        <time>2015-10-25T10:23:56Z</time>
      </trkpt>
      <trkpt lat="45.39292" lon="2.37792">
        <ele>636</ele>
        <time>2015-10-25T10:23:59Z</time>
      </trkpt>
      <trkpt lat="45.39283" lon="2.37794">
        <ele>638</ele>
        <time>2015-10-25T10:24:02Z</time>
      </trkpt>
      <trkpt lat="45.39276" lon="2.37795">
        <ele>638</ele>
        <time>2015-10-25T10:24:05Z</time>
      </trkpt>
      <trkpt lat="45.39268" lon="2.37796">
        <ele>639</ele>
        <time>2015-10-25T10:24:08Z</time>
      </trkpt>
      <trkpt lat="45.39261" lon="2.37796">
        <ele>640</ele>
        <time>2015-10-25T10:24:11Z</time>
      </trkpt>
      <trkpt lat="45.39254" lon="2.37795">
        <ele>642</ele>
        <time>2015-10-25T10:24:14Z</time>
      </trkpt>
      <trkpt lat="45.39246" lon="2.37796">
        <ele>642</ele>
        <time>2015-10-25T10:24:17Z</time>
      </trkpt>
      <trkpt lat="45.39238" lon="2.37796">
        <ele>643</ele>
        <time>2015-10-25T10:24:20Z</time>
      </trkpt>
      <trkpt lat="45.3923" lon="2.37799">
        <ele>643</ele>
        <time>2015-10-25T10:24:23Z</time>
      </trkpt>
      <trkpt lat="45.39222" lon="2.37802">
        <ele>644</ele>
        <time>2015-10-25T10:24:25Z</time>
      </trkpt>
      <trkpt lat="45.39213" lon="2.37802">
        <ele>645</ele>
        <time>2015-10-25T10:24:28Z</time>
      </trkpt>
      <trkpt lat="45.39203" lon="2.37804">
        <ele>645</ele>
        <time>2015-10-25T10:24:31Z</time>
      </trkpt>
      <trkpt lat="45.39194" lon="2.37806">
        <ele>645</ele>
        <time>2015-10-25T10:24:34Z</time>
      </trkpt>
      <trkpt lat="45.39185" lon="2.37807">
        <ele>645</ele>
        <time>2015-10-25T10:24:37Z</time>
      </trkpt>
      <trkpt lat="45.39176" lon="2.37809">
        <ele>646</ele>
        <time>2015-10-25T10:24:40Z</time>
      </trkpt>
      <trkpt lat="45.39168" lon="2.3781">
        <ele>646</ele>
        <time>2015-10-25T10:24:43Z</time>
      </trkpt>
      <trkpt lat="45.39157" lon="2.37809">
        <ele>647</ele>
        <time>2015-10-25T10:24:46Z</time>
      </trkpt>
      <trkpt lat="45.3915" lon="2.37809">
        <ele>647</ele>
        <time>2015-10-25T10:24:48Z</time>
      </trkpt>
      <trkpt lat="45.39142" lon="2.37808">
        <ele>648</ele>
        <time>2015-10-25T10:24:50Z</time>
      </trkpt>
      <trkpt lat="45.39134" lon="2.37808">
        <ele>649</ele>
        <time>2015-10-25T10:24:52Z</time>
      </trkpt>
      <trkpt lat="45.39125" lon="2.37808">
        <ele>649</ele>
        <time>2015-10-25T10:24:54Z</time>
      </trkpt>
      <trkpt lat="45.39116" lon="2.37808">
        <ele>649</ele>
        <time>2015-10-25T10:24:56Z</time>
      </trkpt>
      <trkpt lat="45.39107" lon="2.37808">
        <ele>649</ele>
        <time>2015-10-25T10:24:58Z</time>
      </trkpt>
      <trkpt lat="45.39096" lon="2.3781">
        <ele>648</ele>
        <time>2015-10-25T10:25:00Z</time>
      </trkpt>
      <trkpt lat="45.39086" lon="2.3781">
        <ele>648</ele>
        <time>2015-10-25T10:25:02Z</time>
      </trkpt>
      <trkpt lat="45.39075" lon="2.37811">
        <ele>647</ele>
        <time>2015-10-25T10:25:04Z</time>
      </trkpt>
      <trkpt lat="45.39063" lon="2.37809">
        <ele>648</ele>
        <time>2015-10-25T10:25:06Z</time>
      </trkpt>
      <trkpt lat="45.3905" lon="2.37809">
        <ele>645</ele>
        <time>2015-10-25T10:25:08Z</time>
      </trkpt>
      <trkpt lat="45.39039" lon="2.37804">
        <ele>644</ele>
        <time>2015-10-25T10:25:10Z</time>
      </trkpt>
      <trkpt lat="45.39027" lon="2.37803">
        <ele>644</ele>
        <time>2015-10-25T10:25:12Z</time>
      </trkpt>
      <trkpt lat="45.39014" lon="2.37801">
        <ele>644</ele>
        <time>2015-10-25T10:25:14Z</time>
      </trkpt>
      <trkpt lat="45.39003" lon="2.37797">
        <ele>645</ele>
        <time>2015-10-25T10:25:16Z</time>
      </trkpt>
      <trkpt lat="45.38993" lon="2.37795">
        <ele>640</ele>
        <time>2015-10-25T10:25:18Z</time>
      </trkpt>
      <trkpt lat="45.38982" lon="2.37795">
        <ele>640</ele>
        <time>2015-10-25T10:25:20Z</time>
      </trkpt>
      <trkpt lat="45.3897" lon="2.37796">
        <ele>642</ele>
        <time>2015-10-25T10:25:22Z</time>
      </trkpt>
      <trkpt lat="45.3896" lon="2.37799">
        <ele>643</ele>
        <time>2015-10-25T10:25:24Z</time>
      </trkpt>
      <trkpt lat="45.38947" lon="2.37802">
        <ele>644</ele>
        <time>2015-10-25T10:25:26Z</time>
      </trkpt>
      <trkpt lat="45.38936" lon="2.37806">
        <ele>643</ele>
        <time>2015-10-25T10:25:28Z</time>
      </trkpt>
      <trkpt lat="45.38924" lon="2.37811">
        <ele>640</ele>
        <time>2015-10-25T10:25:30Z</time>
      </trkpt>
      <trkpt lat="45.38913" lon="2.37817">
        <ele>641</ele>
        <time>2015-10-25T10:25:32Z</time>
      </trkpt>
      <trkpt lat="45.38903" lon="2.37819">
        <ele>642</ele>
        <time>2015-10-25T10:25:34Z</time>
      </trkpt>
      <trkpt lat="45.38893" lon="2.37824">
        <ele>642</ele>
        <time>2015-10-25T10:25:36Z</time>
      </trkpt>
      <trkpt lat="45.38882" lon="2.37831">
        <ele>638</ele>
        <time>2015-10-25T10:25:38Z</time>
      </trkpt>
      <trkpt lat="45.38874" lon="2.37834">
        <ele>636</ele>
        <time>2015-10-25T10:25:40Z</time>
      </trkpt>
      <trkpt lat="45.38865" lon="2.37836">
        <ele>641</ele>
        <time>2015-10-25T10:25:42Z</time>
      </trkpt>
      <trkpt lat="45.38855" lon="2.37839">
        <ele>642</ele>
        <time>2015-10-25T10:25:44Z</time>
      </trkpt>
      <trkpt lat="45.38843" lon="2.37839">
        <ele>643</ele>
        <time>2015-10-25T10:25:46Z</time>
      </trkpt>
      <trkpt lat="45.38834" lon="2.37838">
        <ele>644</ele>
        <time>2015-10-25T10:25:48Z</time>
      </trkpt>
      <trkpt lat="45.38824" lon="2.37833">
        <ele>641</ele>
        <time>2015-10-25T10:25:50Z</time>
      </trkpt>
      <trkpt lat="45.38815" lon="2.37828">
        <ele>643</ele>
        <time>2015-10-25T10:25:52Z</time>
      </trkpt>
      <trkpt lat="45.38805" lon="2.37829">
        <ele>644</ele>
        <time>2015-10-25T10:25:54Z</time>
      </trkpt>
      <trkpt lat="45.38801" lon="2.37841">
        <ele>642</ele>
        <time>2015-10-25T10:25:56Z</time>
      </trkpt>
      <trkpt lat="45.38803" lon="2.37852">
        <ele>642</ele>
        <time>2015-10-25T10:25:58Z</time>
      </trkpt>
      <trkpt lat="45.38803" lon="2.37867">
        <ele>638</ele>
        <time>2015-10-25T10:26:00Z</time>
      </trkpt>
      <trkpt lat="45.38802" lon="2.37883">
        <ele>640</ele>
        <time>2015-10-25T10:26:02Z</time>
      </trkpt>
      <trkpt lat="45.38798" lon="2.37901">
        <ele>640</ele>
        <time>2015-10-25T10:26:04Z</time>
      </trkpt>
      <trkpt lat="45.38794" lon="2.37911">
        <ele>639</ele>
        <time>2015-10-25T10:26:05Z</time>
      </trkpt>
      <trkpt lat="45.38791" lon="2.37921">
        <ele>638</ele>
        <time>2015-10-25T10:26:06Z</time>
      </trkpt>
      <trkpt lat="45.38788" lon="2.37932">
        <ele>637</ele>
        <time>2015-10-25T10:26:07Z</time>
      </trkpt>
      <trkpt lat="45.38786" lon="2.37944">
        <ele>637</ele>
        <time>2015-10-25T10:26:08Z</time>
      </trkpt>
      <trkpt lat="45.38785" lon="2.37955">
        <ele>633</ele>
        <time>2015-10-25T10:26:09Z</time>
      </trkpt>
      <trkpt lat="45.38783" lon="2.37967">
        <ele>634</ele>
        <time>2015-10-25T10:26:10Z</time>
      </trkpt>
      <trkpt lat="45.38785" lon="2.37979">
        <ele>634</ele>
        <time>2015-10-25T10:26:11Z</time>
      </trkpt>
      <trkpt lat="45.38788" lon="2.37992">
        <ele>633</ele>
        <time>2015-10-25T10:26:12Z</time>
      </trkpt>
      <trkpt lat="45.38792" lon="2.38004">
        <ele>633</ele>
        <time>2015-10-25T10:26:13Z</time>
      </trkpt>
      <trkpt lat="45.38795" lon="2.38015">
        <ele>634</ele>
        <time>2015-10-25T10:26:14Z</time>
      </trkpt>
      <trkpt lat="45.38798" lon="2.38026">
        <ele>635</ele>
        <time>2015-10-25T10:26:15Z</time>
      </trkpt>
      <trkpt lat="45.388" lon="2.38037">
        <ele>634</ele>
        <time>2015-10-25T10:26:16Z</time>
      </trkpt>
      <trkpt lat="45.38805" lon="2.38049">
        <ele>634</ele>
        <time>2015-10-25T10:26:17Z</time>
      </trkpt>
      <trkpt lat="45.38808" lon="2.38059">
        <ele>633</ele>
        <time>2015-10-25T10:26:18Z</time>
      </trkpt>
      <trkpt lat="45.38812" lon="2.3807">
        <ele>630</ele>
        <time>2015-10-25T10:26:19Z</time>
      </trkpt>
      <trkpt lat="45.38816" lon="2.3808">
        <ele>631</ele>
        <time>2015-10-25T10:26:20Z</time>
      </trkpt>
      <trkpt lat="45.38819" lon="2.3809">
        <ele>632</ele>
        <time>2015-10-25T10:26:21Z</time>
      </trkpt>
      <trkpt lat="45.38823" lon="2.38102">
        <ele>631</ele>
        <time>2015-10-25T10:26:22Z</time>
      </trkpt>
      <trkpt lat="45.3883" lon="2.3812">
        <ele>629</ele>
        <time>2015-10-25T10:26:24Z</time>
      </trkpt>
      <trkpt lat="45.38837" lon="2.38139">
        <ele>629</ele>
        <time>2015-10-25T10:26:26Z</time>
      </trkpt>
      <trkpt lat="45.38845" lon="2.38158">
        <ele>629</ele>
        <time>2015-10-25T10:26:28Z</time>
      </trkpt>
      <trkpt lat="45.3885" lon="2.38167">
        <ele>627</ele>
        <time>2015-10-25T10:26:29Z</time>
      </trkpt>
      <trkpt lat="45.38854" lon="2.38182">
        <ele>627</ele>
        <time>2015-10-25T10:26:31Z</time>
      </trkpt>
      <trkpt lat="45.38859" lon="2.38196">
        <ele>628</ele>
        <time>2015-10-25T10:26:33Z</time>
      </trkpt>
      <trkpt lat="45.38854" lon="2.38206">
        <ele>627</ele>
        <time>2015-10-25T10:26:35Z</time>
      </trkpt>
      <trkpt lat="45.38845" lon="2.3821">
        <ele>627</ele>
        <time>2015-10-25T10:26:37Z</time>
      </trkpt>
      <trkpt lat="45.38834" lon="2.38213">
        <ele>626</ele>
        <time>2015-10-25T10:26:39Z</time>
      </trkpt>
      <trkpt lat="45.38824" lon="2.38216">
        <ele>628</ele>
        <time>2015-10-25T10:26:41Z</time>
      </trkpt>
      <trkpt lat="45.38814" lon="2.38221">
        <ele>626</ele>
        <time>2015-10-25T10:26:43Z</time>
      </trkpt>
      <trkpt lat="45.38804" lon="2.38229">
        <ele>627</ele>
        <time>2015-10-25T10:26:45Z</time>
      </trkpt>
      <trkpt lat="45.38797" lon="2.38236">
        <ele>627</ele>
        <time>2015-10-25T10:26:47Z</time>
      </trkpt>
      <trkpt lat="45.38794" lon="2.38248">
        <ele>627</ele>
        <time>2015-10-25T10:26:49Z</time>
      </trkpt>
      <trkpt lat="45.38786" lon="2.38253">
        <ele>626</ele>
        <time>2015-10-25T10:26:53Z</time>
      </trkpt>
      <trkpt lat="45.38781" lon="2.38257">
        <ele>627</ele>
        <time>2015-10-25T10:27:00Z</time>
      </trkpt>
      <trkpt lat="45.38781" lon="2.38258">
        <ele>627</ele>
        <time>2015-10-25T10:27:06Z</time>
      </trkpt>
      <trkpt lat="45.3878" lon="2.38257">
        <ele>630</ele>
        <time>2015-10-25T10:27:20Z</time>
      </trkpt>
      <trkpt lat="45.3878" lon="2.38257">
        <ele>629</ele>
        <time>2015-10-25T10:27:21Z</time>
      </trkpt>
      <trkpt lat="45.38772" lon="2.38256">
        <ele>622</ele>
        <time>2015-10-25T10:28:37Z</time>
      </trkpt>
      <trkpt lat="45.38764" lon="2.38252">
        <ele>626</ele>
        <time>2015-10-25T10:28:41Z</time>
      </trkpt>
      <trkpt lat="45.38755" lon="2.38249">
        <ele>629</ele>
        <time>2015-10-25T10:28:44Z</time>
      </trkpt>
      <trkpt lat="45.38748" lon="2.38249">
        <ele>626</ele>
        <time>2015-10-25T10:28:47Z</time>
      </trkpt>
      <trkpt lat="45.38739" lon="2.38249">
        <ele>628</ele>
        <time>2015-10-25T10:28:50Z</time>
      </trkpt>
      <trkpt lat="45.38728" lon="2.38251">
        <ele>628</ele>
        <time>2015-10-25T10:28:53Z</time>
      </trkpt>
      <trkpt lat="45.38721" lon="2.38253">
        <ele>627</ele>
        <time>2015-10-25T10:28:55Z</time>
      </trkpt>
      <trkpt lat="45.3871" lon="2.38256">
        <ele>627</ele>
        <time>2015-10-25T10:28:58Z</time>
      </trkpt>
      <trkpt lat="45.38703" lon="2.38258">
        <ele>628</ele>
        <time>2015-10-25T10:29:00Z</time>
      </trkpt>
      <trkpt lat="45.38696" lon="2.3826">
        <ele>627</ele>
        <time>2015-10-25T10:29:02Z</time>
      </trkpt>
      <trkpt lat="45.38687" lon="2.38262">
        <ele>626</ele>
        <time>2015-10-25T10:29:04Z</time>
      </trkpt>
      <trkpt lat="45.38679" lon="2.38265">
        <ele>626</ele>
        <time>2015-10-25T10:29:06Z</time>
      </trkpt>
      <trkpt lat="45.38671" lon="2.38267">
        <ele>627</ele>
        <time>2015-10-25T10:29:08Z</time>
      </trkpt>
      <trkpt lat="45.38662" lon="2.38269">
        <ele>626</ele>
        <time>2015-10-25T10:29:10Z</time>
      </trkpt>
      <trkpt lat="45.38654" lon="2.38271">
        <ele>626</ele>
        <time>2015-10-25T10:29:12Z</time>
      </trkpt>
      <trkpt lat="45.38646" lon="2.38271">
        <ele>625</ele>
        <time>2015-10-25T10:29:14Z</time>
      </trkpt>
      <trkpt lat="45.38638" lon="2.38271">
        <ele>624</ele>
        <time>2015-10-25T10:29:16Z</time>
      </trkpt>
      <trkpt lat="45.38631" lon="2.38268">
        <ele>626</ele>
        <time>2015-10-25T10:29:18Z</time>
      </trkpt>
      <trkpt lat="45.38624" lon="2.38265">
        <ele>627</ele>
        <time>2015-10-25T10:29:20Z</time>
      </trkpt>
      <trkpt lat="45.38616" lon="2.38263">
        <ele>628</ele>
        <time>2015-10-25T10:29:22Z</time>
      </trkpt>
      <trkpt lat="45.3861" lon="2.38258">
        <ele>628</ele>
        <time>2015-10-25T10:29:24Z</time>
      </trkpt>
      <trkpt lat="45.38603" lon="2.38254">
        <ele>628</ele>
        <time>2015-10-25T10:29:26Z</time>
      </trkpt>
      <trkpt lat="45.38593" lon="2.38249">
        <ele>627</ele>
        <time>2015-10-25T10:29:29Z</time>
      </trkpt>
      <trkpt lat="45.38584" lon="2.38243">
        <ele>625</ele>
        <time>2015-10-25T10:29:32Z</time>
      </trkpt>
      <trkpt lat="45.38576" lon="2.38238">
        <ele>628</ele>
        <time>2015-10-25T10:29:35Z</time>
      </trkpt>
      <trkpt lat="45.38567" lon="2.38233">
        <ele>627</ele>
        <time>2015-10-25T10:29:38Z</time>
      </trkpt>
      <trkpt lat="45.38559" lon="2.38227">
        <ele>627</ele>
        <time>2015-10-25T10:29:41Z</time>
      </trkpt>
      <trkpt lat="45.38551" lon="2.38219">
        <ele>628</ele>
        <time>2015-10-25T10:29:42Z</time>
      </trkpt>
      <trkpt lat="45.38542" lon="2.38213">
        <ele>628</ele>
        <time>2015-10-25T10:29:45Z</time>
      </trkpt>
      <trkpt lat="45.38535" lon="2.3821">
        <ele>627</ele>
        <time>2015-10-25T10:29:47Z</time>
      </trkpt>
      <trkpt lat="45.38528" lon="2.38207">
        <ele>628</ele>
        <time>2015-10-25T10:29:49Z</time>
      </trkpt>
      <trkpt lat="45.38521" lon="2.38204">
        <ele>627</ele>
        <time>2015-10-25T10:29:51Z</time>
      </trkpt>
      <trkpt lat="45.38511" lon="2.38201">
        <ele>627</ele>
        <time>2015-10-25T10:29:54Z</time>
      </trkpt>
      <trkpt lat="45.38501" lon="2.38197">
        <ele>627</ele>
        <time>2015-10-25T10:29:57Z</time>
      </trkpt>
      <trkpt lat="45.38491" lon="2.38195">
        <ele>629</ele>
        <time>2015-10-25T10:30:00Z</time>
      </trkpt>
      <trkpt lat="45.38482" lon="2.38191">
        <ele>628</ele>
        <time>2015-10-25T10:30:03Z</time>
      </trkpt>
      <trkpt lat="45.38474" lon="2.3819">
        <ele>627</ele>
        <time>2015-10-25T10:30:06Z</time>
      </trkpt>
      <trkpt lat="45.38465" lon="2.38188">
        <ele>628</ele>
        <time>2015-10-25T10:30:09Z</time>
      </trkpt>
      <trkpt lat="45.38455" lon="2.38188">
        <ele>627</ele>
        <time>2015-10-25T10:30:12Z</time>
      </trkpt>
      <trkpt lat="45.38445" lon="2.38189">
        <ele>627</ele>
        <time>2015-10-25T10:30:15Z</time>
      </trkpt>
      <trkpt lat="45.38435" lon="2.38192">
        <ele>627</ele>
        <time>2015-10-25T10:30:18Z</time>
      </trkpt>
      <trkpt lat="45.38428" lon="2.38194">
        <ele>627</ele>
        <time>2015-10-25T10:30:20Z</time>
      </trkpt>
      <trkpt lat="45.38421" lon="2.38198">
        <ele>626</ele>
        <time>2015-10-25T10:30:22Z</time>
      </trkpt>
      <trkpt lat="45.38414" lon="2.38204">
        <ele>627</ele>
        <time>2015-10-25T10:30:24Z</time>
      </trkpt>
      <trkpt lat="45.38407" lon="2.38208">
        <ele>627</ele>
        <time>2015-10-25T10:30:26Z</time>
      </trkpt>
      <trkpt lat="45.384" lon="2.38212">
        <ele>628</ele>
        <time>2015-10-25T10:30:28Z</time>
      </trkpt>
      <trkpt lat="45.38392" lon="2.38215">
        <ele>628</ele>
        <time>2015-10-25T10:30:30Z</time>
      </trkpt>
      <trkpt lat="45.38385" lon="2.3822">
        <ele>628</ele>
        <time>2015-10-25T10:30:32Z</time>
      </trkpt>
      <trkpt lat="45.38378" lon="2.38225">
        <ele>627</ele>
        <time>2015-10-25T10:30:34Z</time>
      </trkpt>
      <trkpt lat="45.38371" lon="2.38229">
        <ele>626</ele>
        <time>2015-10-25T10:30:36Z</time>
      </trkpt>
      <trkpt lat="45.38364" lon="2.38236">
        <ele>625</ele>
        <time>2015-10-25T10:30:38Z</time>
      </trkpt>
      <trkpt lat="45.38357" lon="2.38242">
        <ele>625</ele>
        <time>2015-10-25T10:30:40Z</time>
      </trkpt>
      <trkpt lat="45.3835" lon="2.38246">
        <ele>625</ele>
        <time>2015-10-25T10:30:42Z</time>
      </trkpt>
      <trkpt lat="45.38343" lon="2.38252">
        <ele>625</ele>
        <time>2015-10-25T10:30:44Z</time>
      </trkpt>
      <trkpt lat="45.38336" lon="2.38259">
        <ele>625</ele>
        <time>2015-10-25T10:30:46Z</time>
      </trkpt>
      <trkpt lat="45.38329" lon="2.38266">
        <ele>624</ele>
        <time>2015-10-25T10:30:48Z</time>
      </trkpt>
      <trkpt lat="45.38326" lon="2.38277">
        <ele>624</ele>
        <time>2015-10-25T10:30:50Z</time>
      </trkpt>
      <trkpt lat="45.38324" lon="2.38289">
        <ele>625</ele>
        <time>2015-10-25T10:30:52Z</time>
      </trkpt>
      <trkpt lat="45.38324" lon="2.38302">
        <ele>625</ele>
        <time>2015-10-25T10:30:54Z</time>
      </trkpt>
      <trkpt lat="45.38325" lon="2.38314">
        <ele>624</ele>
        <time>2015-10-25T10:30:56Z</time>
      </trkpt>
      <trkpt lat="45.38327" lon="2.38326">
        <ele>625</ele>
        <time>2015-10-25T10:30:58Z</time>
      </trkpt>
      <trkpt lat="45.38329" lon="2.38338">
        <ele>625</ele>
        <time>2015-10-25T10:31:00Z</time>
      </trkpt>
      <trkpt lat="45.38331" lon="2.3835">
        <ele>625</ele>
        <time>2015-10-25T10:31:02Z</time>
      </trkpt>
      <trkpt lat="45.38333" lon="2.38362">
        <ele>625</ele>
        <time>2015-10-25T10:31:04Z</time>
      </trkpt>
      <trkpt lat="45.38336" lon="2.38374">
        <ele>626</ele>
        <time>2015-10-25T10:31:06Z</time>
      </trkpt>
      <trkpt lat="45.38338" lon="2.38385">
        <ele>626</ele>
        <time>2015-10-25T10:31:08Z</time>
      </trkpt>
      <trkpt lat="45.3834" lon="2.38397">
        <ele>626</ele>
        <time>2015-10-25T10:31:10Z</time>
      </trkpt>
      <trkpt lat="45.38342" lon="2.38408">
        <ele>626</ele>
        <time>2015-10-25T10:31:12Z</time>
      </trkpt>
      <trkpt lat="45.38343" lon="2.38418">
        <ele>625</ele>
        <time>2015-10-25T10:31:14Z</time>
      </trkpt>
      <trkpt lat="45.38346" lon="2.38432">
        <ele>625</ele>
        <time>2015-10-25T10:31:17Z</time>
      </trkpt>
      <trkpt lat="45.38348" lon="2.38442">
        <ele>626</ele>
        <time>2015-10-25T10:31:19Z</time>
      </trkpt>
      <trkpt lat="45.38351" lon="2.38452">
        <ele>626</ele>
        <time>2015-10-25T10:31:21Z</time>
      </trkpt>
      <trkpt lat="45.38353" lon="2.38463">
        <ele>627</ele>
        <time>2015-10-25T10:31:23Z</time>
      </trkpt>
      <trkpt lat="45.38355" lon="2.38473">
        <ele>626</ele>
        <time>2015-10-25T10:31:25Z</time>
      </trkpt>
      <trkpt lat="45.38357" lon="2.38484">
        <ele>627</ele>
        <time>2015-10-25T10:31:27Z</time>
      </trkpt>
      <trkpt lat="45.38362" lon="2.38496">
        <ele>626</ele>
        <time>2015-10-25T10:31:30Z</time>
      </trkpt>
      <trkpt lat="45.38369" lon="2.38506">
        <ele>626</ele>
        <time>2015-10-25T10:31:33Z</time>
      </trkpt>
      <trkpt lat="45.38379" lon="2.38506">
        <ele>626</ele>
        <time>2015-10-25T10:31:36Z</time>
      </trkpt>
      <trkpt lat="45.38389" lon="2.38496">
        <ele>626</ele>
        <time>2015-10-25T10:31:38Z</time>
      </trkpt>
      <trkpt lat="45.38398" lon="2.38494">
        <ele>626</ele>
        <time>2015-10-25T10:31:41Z</time>
      </trkpt>
      <trkpt lat="45.38406" lon="2.38492">
        <ele>626</ele>
        <time>2015-10-25T10:31:43Z</time>
      </trkpt>
      <trkpt lat="45.38415" lon="2.38491">
        <ele>627</ele>
        <time>2015-10-25T10:31:46Z</time>
      </trkpt>
      <trkpt lat="45.38423" lon="2.38491">
        <ele>628</ele>
        <time>2015-10-25T10:31:49Z</time>
      </trkpt>
      <trkpt lat="45.38431" lon="2.38488">
        <ele>628</ele>
        <time>2015-10-25T10:31:52Z</time>
      </trkpt>
      <trkpt lat="45.38439" lon="2.38489">
        <ele>630</ele>
        <time>2015-10-25T10:31:55Z</time>
      </trkpt>
      <trkpt lat="45.38444" lon="2.385">
        <ele>629</ele>
        <time>2015-10-25T10:31:58Z</time>
      </trkpt>
      <trkpt lat="45.38447" lon="2.38511">
        <ele>630</ele>
        <time>2015-10-25T10:32:01Z</time>
      </trkpt>
      <trkpt lat="45.38453" lon="2.38517">
        <ele>631</ele>
        <time>2015-10-25T10:32:04Z</time>
      </trkpt>
      <trkpt lat="45.38459" lon="2.38523">
        <ele>631</ele>
        <time>2015-10-25T10:32:07Z</time>
      </trkpt>
      <trkpt lat="45.38465" lon="2.38528">
        <ele>632</ele>
        <time>2015-10-25T10:32:10Z</time>
      </trkpt>
      <trkpt lat="45.38473" lon="2.38532">
        <ele>633</ele>
        <time>2015-10-25T10:32:13Z</time>
      </trkpt>
      <trkpt lat="45.3848" lon="2.38534">
        <ele>634</ele>
        <time>2015-10-25T10:32:16Z</time>
      </trkpt>
      <trkpt lat="45.38488" lon="2.38536">
        <ele>633</ele>
        <time>2015-10-25T10:32:19Z</time>
      </trkpt>
      <trkpt lat="45.38498" lon="2.38536">
        <ele>633</ele>
        <time>2015-10-25T10:32:22Z</time>
      </trkpt>
      <trkpt lat="45.38506" lon="2.38536">
        <ele>633</ele>
        <time>2015-10-25T10:32:24Z</time>
      </trkpt>
      <trkpt lat="45.38515" lon="2.38536">
        <ele>634</ele>
        <time>2015-10-25T10:32:26Z</time>
      </trkpt>
      <trkpt lat="45.38523" lon="2.38537">
        <ele>631</ele>
        <time>2015-10-25T10:32:28Z</time>
      </trkpt>
      <trkpt lat="45.3853" lon="2.3854">
        <ele>632</ele>
        <time>2015-10-25T10:32:30Z</time>
      </trkpt>
      <trkpt lat="45.38537" lon="2.38541">
        <ele>632</ele>
        <time>2015-10-25T10:32:32Z</time>
      </trkpt>
      <trkpt lat="45.38545" lon="2.38539">
        <ele>631</ele>
        <time>2015-10-25T10:32:34Z</time>
      </trkpt>
      <trkpt lat="45.38552" lon="2.38535">
        <ele>632</ele>
        <time>2015-10-25T10:32:36Z</time>
      </trkpt>
      <trkpt lat="45.38559" lon="2.38529">
        <ele>631</ele>
        <time>2015-10-25T10:32:38Z</time>
      </trkpt>
      <trkpt lat="45.38565" lon="2.38524">
        <ele>632</ele>
        <time>2015-10-25T10:32:40Z</time>
      </trkpt>
      <trkpt lat="45.38571" lon="2.38519">
        <ele>634</ele>
        <time>2015-10-25T10:32:43Z</time>
      </trkpt>
      <trkpt lat="45.3858" lon="2.38517">
        <ele>635</ele>
        <time>2015-10-25T10:32:47Z</time>
      </trkpt>
      <trkpt lat="45.38588" lon="2.38518">
        <ele>633</ele>
        <time>2015-10-25T10:32:51Z</time>
      </trkpt>
      <trkpt lat="45.38596" lon="2.3852">
        <ele>637</ele>
        <time>2015-10-25T10:32:55Z</time>
      </trkpt>
      <trkpt lat="45.38604" lon="2.38523">
        <ele>633</ele>
        <time>2015-10-25T10:32:59Z</time>
      </trkpt>
      <trkpt lat="45.38611" lon="2.3853">
        <ele>635</ele>
        <time>2015-10-25T10:33:06Z</time>
      </trkpt>
      <trkpt lat="45.38616" lon="2.38541">
        <ele>634</ele>
        <time>2015-10-25T10:33:11Z</time>
      </trkpt>
      <trkpt lat="45.38615" lon="2.38544">
        <ele>633</ele>
        <time>2015-10-25T10:33:18Z</time>
      </trkpt>
      <trkpt lat="45.38615" lon="2.38545">
        <ele>632</ele>
        <time>2015-10-25T10:33:25Z</time>
      </trkpt>
      <trkpt lat="45.38608" lon="2.38542">
        <ele>633</ele>
        <time>2015-10-25T10:33:33Z</time>
      </trkpt>
      <trkpt lat="45.38603" lon="2.38538">
        <ele>639</ele>
        <time>2015-10-25T10:33:40Z</time>
      </trkpt>
      <trkpt lat="45.38603" lon="2.38538">
        <ele>638</ele>
        <time>2015-10-25T10:33:46Z</time>
      </trkpt>
      <trkpt lat="45.38607" lon="2.38541">
        <ele>635</ele>
        <time>2015-10-25T10:34:47Z</time>
      </trkpt>
      <trkpt lat="45.38614" lon="2.38545">
        <ele>633</ele>
        <time>2015-10-25T10:34:53Z</time>
      </trkpt>
      <trkpt lat="45.38619" lon="2.38555">
        <ele>636</ele>
        <time>2015-10-25T10:34:59Z</time>
      </trkpt>
      <trkpt lat="45.3862" lon="2.38566">
        <ele>632</ele>
        <time>2015-10-25T10:35:03Z</time>
      </trkpt>
      <trkpt lat="45.38622" lon="2.38577">
        <ele>635</ele>
        <time>2015-10-25T10:35:07Z</time>
      </trkpt>
      <trkpt lat="45.38625" lon="2.38589">
        <ele>635</ele>
        <time>2015-10-25T10:35:11Z</time>
      </trkpt>
      <trkpt lat="45.38626" lon="2.38601">
        <ele>635</ele>
        <time>2015-10-25T10:35:15Z</time>
      </trkpt>
      <trkpt lat="45.38629" lon="2.38611">
        <ele>637</ele>
        <time>2015-10-25T10:35:20Z</time>
      </trkpt>
      <trkpt lat="45.38629" lon="2.38624">
        <ele>635</ele>
        <time>2015-10-25T10:35:24Z</time>
      </trkpt>
      <trkpt lat="45.3863" lon="2.38635">
        <ele>636</ele>
        <time>2015-10-25T10:35:28Z</time>
      </trkpt>
      <trkpt lat="45.38633" lon="2.38645">
        <ele>636</ele>
        <time>2015-10-25T10:35:32Z</time>
      </trkpt>
      <trkpt lat="45.38639" lon="2.38653">
        <ele>633</ele>
        <time>2015-10-25T10:35:37Z</time>
      </trkpt>
      <trkpt lat="45.38648" lon="2.38652">
        <ele>634</ele>
        <time>2015-10-25T10:35:42Z</time>
      </trkpt>
      <trkpt lat="45.38657" lon="2.38655">
        <ele>634</ele>
        <time>2015-10-25T10:35:46Z</time>
      </trkpt>
      <trkpt lat="45.38665" lon="2.38659">
        <ele>634</ele>
        <time>2015-10-25T10:35:50Z</time>
      </trkpt>
      <trkpt lat="45.38673" lon="2.38662">
        <ele>636</ele>
        <time>2015-10-25T10:35:54Z</time>
      </trkpt>
      <trkpt lat="45.38681" lon="2.38665">
        <ele>635</ele>
        <time>2015-10-25T10:35:58Z</time>
      </trkpt>
      <trkpt lat="45.38689" lon="2.38671">
        <ele>637</ele>
        <time>2015-10-25T10:36:02Z</time>
      </trkpt>
      <trkpt lat="45.38696" lon="2.38676">
        <ele>638</ele>
        <time>2015-10-25T10:36:05Z</time>
      </trkpt>
      <trkpt lat="45.38703" lon="2.38681">
        <ele>637</ele>
        <time>2015-10-25T10:36:08Z</time>
      </trkpt>
      <trkpt lat="45.3871" lon="2.38686">
        <ele>638</ele>
        <time>2015-10-25T10:36:11Z</time>
      </trkpt>
      <trkpt lat="45.38719" lon="2.38691">
        <ele>639</ele>
        <time>2015-10-25T10:36:14Z</time>
      </trkpt>
      <trkpt lat="45.38727" lon="2.38697">
        <ele>636</ele>
        <time>2015-10-25T10:36:17Z</time>
      </trkpt>
      <trkpt lat="45.38734" lon="2.38702">
        <ele>639</ele>
        <time>2015-10-25T10:36:20Z</time>
      </trkpt>
      <trkpt lat="45.38741" lon="2.3871">
        <ele>639</ele>
        <time>2015-10-25T10:36:23Z</time>
      </trkpt>
      <trkpt lat="45.38748" lon="2.38717">
        <ele>640</ele>
        <time>2015-10-25T10:36:26Z</time>
      </trkpt>
      <trkpt lat="45.38756" lon="2.38724">
        <ele>639</ele>
        <time>2015-10-25T10:36:29Z</time>
      </trkpt>
      <trkpt lat="45.38762" lon="2.38733">
        <ele>639</ele>
        <time>2015-10-25T10:36:32Z</time>
      </trkpt>
      <trkpt lat="45.38768" lon="2.38743">
        <ele>640</ele>
        <time>2015-10-25T10:36:35Z</time>
      </trkpt>
      <trkpt lat="45.38773" lon="2.38752">
        <ele>638</ele>
        <time>2015-10-25T10:36:38Z</time>
      </trkpt>
      <trkpt lat="45.38777" lon="2.38763">
        <ele>639</ele>
        <time>2015-10-25T10:36:41Z</time>
      </trkpt>
      <trkpt lat="45.38782" lon="2.38775">
        <ele>640</ele>
        <time>2015-10-25T10:36:44Z</time>
      </trkpt>
      <trkpt lat="45.38786" lon="2.38786">
        <ele>641</ele>
        <time>2015-10-25T10:36:47Z</time>
      </trkpt>
      <trkpt lat="45.38791" lon="2.38796">
        <ele>642</ele>
        <time>2015-10-25T10:36:50Z</time>
      </trkpt>
      <trkpt lat="45.38791" lon="2.38806">
        <ele>642</ele>
        <time>2015-10-25T10:36:54Z</time>
      </trkpt>
      <trkpt lat="45.38789" lon="2.38818">
        <ele>639</ele>
        <time>2015-10-25T10:36:58Z</time>
      </trkpt>
      <trkpt lat="45.38783" lon="2.38828">
        <ele>640</ele>
        <time>2015-10-25T10:37:02Z</time>
      </trkpt>
      <trkpt lat="45.3878" lon="2.38838">
        <ele>642</ele>
        <time>2015-10-25T10:37:05Z</time>
      </trkpt>
      <trkpt lat="45.38775" lon="2.38848">
        <ele>642</ele>
        <time>2015-10-25T10:37:09Z</time>
      </trkpt>
      <trkpt lat="45.3877" lon="2.38859">
        <ele>640</ele>
        <time>2015-10-25T10:37:13Z</time>
      </trkpt>
      <trkpt lat="45.38767" lon="2.38869">
        <ele>645</ele>
        <time>2015-10-25T10:37:16Z</time>
      </trkpt>
      <trkpt lat="45.38763" lon="2.38881">
        <ele>641</ele>
        <time>2015-10-25T10:37:20Z</time>
      </trkpt>
      <trkpt lat="45.38761" lon="2.38892">
        <ele>647</ele>
        <time>2015-10-25T10:37:24Z</time>
      </trkpt>
      <trkpt lat="45.38758" lon="2.38903">
        <ele>645</ele>
        <time>2015-10-25T10:37:28Z</time>
      </trkpt>
      <trkpt lat="45.38753" lon="2.38913">
        <ele>647</ele>
        <time>2015-10-25T10:37:32Z</time>
      </trkpt>
      <trkpt lat="45.38747" lon="2.3892">
        <ele>648</ele>
        <time>2015-10-25T10:37:36Z</time>
      </trkpt>
      <trkpt lat="45.38739" lon="2.38924">
        <ele>648</ele>
        <time>2015-10-25T10:37:40Z</time>
      </trkpt>
      <trkpt lat="45.38731" lon="2.38929">
        <ele>644</ele>
        <time>2015-10-25T10:37:44Z</time>
      </trkpt>
      <trkpt lat="45.38722" lon="2.38933">
        <ele>646</ele>
        <time>2015-10-25T10:37:48Z</time>
      </trkpt>
      <trkpt lat="45.3872" lon="2.38943">
        <ele>650</ele>
        <time>2015-10-25T10:37:51Z</time>
      </trkpt>
      <trkpt lat="45.38717" lon="2.38953">
        <ele>651</ele>
        <time>2015-10-25T10:37:54Z</time>
      </trkpt>
      <trkpt lat="45.38712" lon="2.38964">
        <ele>648</ele>
        <time>2015-10-25T10:37:58Z</time>
      </trkpt>
      <trkpt lat="45.38706" lon="2.38973">
        <ele>648</ele>
        <time>2015-10-25T10:38:02Z</time>
      </trkpt>
      <trkpt lat="45.387" lon="2.38983">
        <ele>653</ele>
        <time>2015-10-25T10:38:06Z</time>
      </trkpt>
      <trkpt lat="45.38699" lon="2.38988">
        <ele>650</ele>
        <time>2015-10-25T10:38:13Z</time>
      </trkpt>
      <trkpt lat="45.38699" lon="2.38988">
        <ele>652</ele>
        <time>2015-10-25T10:38:15Z</time>
      </trkpt>
      <trkpt lat="45.38699" lon="2.38989">
        <ele>653</ele>
        <time>2015-10-25T10:38:27Z</time>
      </trkpt>
      <trkpt lat="45.38699" lon="2.38989">
        <ele>653</ele>
        <time>2015-10-25T10:38:28Z</time>
      </trkpt>
      <trkpt lat="45.38701" lon="2.38988">
        <ele>654</ele>
        <time>2015-10-25T10:38:36Z</time>
      </trkpt>
      <trkpt lat="45.38701" lon="2.38988">
        <ele>653</ele>
        <time>2015-10-25T10:38:37Z</time>
      </trkpt>
    </trkseg>
  </trk>
</gpx>